<?xml version="1.0" encoding="UTF-8" standalone="no" ?>
<gpx xmlns="http://www.topografix.com/GPX/1/1" xmlns:xsi="http://www.w3.org/2001/XMLSchema-instance" xsi:schemaLocation="http://www.topografix.com/GPX/1/1 http://www.topografix.com/GPX/1/1/gpx.xsd" version="1.1" creator="VisuGPX - https://www.visugpx.com">
  <metadata>
    <name>La Chapelle-de-Guinchay Cyclisme</name>
    <desc><![CDATA[Col de Durbize au départ de Beaujeu]]></desc>
  </metadata>
  <trk>
    <name><![CDATA[La Chapelle-de-Guinchay Cyclisme]]></name>
    <trkseg>
      <trkpt lat="46.15062" lon="4.59537">
        <ele>295.20001220703</ele>
        <time>2020-07-22T14:24:50.000Z</time>
      </trkpt>
      <trkpt lat="46.15062" lon="4.59544">
        <ele>295.60000610352</ele>
        <time>2020-07-22T14:24:51.000Z</time>
      </trkpt>
      <trkpt lat="46.15067" lon="4.59563">
        <ele>297.39999389648</ele>
        <time>2020-07-22T14:24:54.000Z</time>
      </trkpt>
      <trkpt lat="46.15065" lon="4.5959">
        <ele>298.39999389648</ele>
        <time>2020-07-22T14:24:58.000Z</time>
      </trkpt>
      <trkpt lat="46.15064" lon="4.59604">
        <ele>298.79998779297</ele>
        <time>2020-07-22T14:25:00.000Z</time>
      </trkpt>
      <trkpt lat="46.15058" lon="4.59624">
        <ele>299</ele>
        <time>2020-07-22T14:25:03.000Z</time>
      </trkpt>
      <trkpt lat="46.15044" lon="4.59644">
        <ele>299.20001220703</ele>
        <time>2020-07-22T14:25:07.000Z</time>
      </trkpt>
      <trkpt lat="46.15031" lon="4.59653">
        <ele>298.79998779297</ele>
        <time>2020-07-22T14:25:10.000Z</time>
      </trkpt>
      <trkpt lat="46.15019" lon="4.59663">
        <ele>298.60000610352</ele>
        <time>2020-07-22T14:25:13.000Z</time>
      </trkpt>
      <trkpt lat="46.1501" lon="4.59668">
        <ele>298.79998779297</ele>
        <time>2020-07-22T14:25:15.000Z</time>
      </trkpt>
      <trkpt lat="46.14991" lon="4.59678">
        <ele>298.79998779297</ele>
        <time>2020-07-22T14:25:19.000Z</time>
      </trkpt>
      <trkpt lat="46.14987" lon="4.59681">
        <ele>298.79998779297</ele>
        <time>2020-07-22T14:25:20.000Z</time>
      </trkpt>
      <trkpt lat="46.14965" lon="4.59695">
        <ele>298.79998779297</ele>
        <time>2020-07-22T14:25:25.000Z</time>
      </trkpt>
      <trkpt lat="46.14952" lon="4.59706">
        <ele>298.60000610352</ele>
        <time>2020-07-22T14:25:28.000Z</time>
      </trkpt>
      <trkpt lat="46.14949" lon="4.5971">
        <ele>299</ele>
        <time>2020-07-22T14:25:29.000Z</time>
      </trkpt>
      <trkpt lat="46.14945" lon="4.59714">
        <ele>299.39999389648</ele>
        <time>2020-07-22T14:25:30.000Z</time>
      </trkpt>
      <trkpt lat="46.14925" lon="4.59745">
        <ele>301.60000610352</ele>
        <time>2020-07-22T14:25:36.000Z</time>
      </trkpt>
      <trkpt lat="46.14922" lon="4.59751">
        <ele>301.60000610352</ele>
        <time>2020-07-22T14:25:37.000Z</time>
      </trkpt>
      <trkpt lat="46.14909" lon="4.59787">
        <ele>302</ele>
        <time>2020-07-22T14:25:43.000Z</time>
      </trkpt>
      <trkpt lat="46.14907" lon="4.59793">
        <ele>302.60000610352</ele>
        <time>2020-07-22T14:25:44.000Z</time>
      </trkpt>
      <trkpt lat="46.14905" lon="4.59804">
        <ele>303.39999389648</ele>
        <time>2020-07-22T14:25:46.000Z</time>
      </trkpt>
      <trkpt lat="46.14901" lon="4.59815">
        <ele>304</ele>
        <time>2020-07-22T14:25:48.000Z</time>
      </trkpt>
      <trkpt lat="46.14896" lon="4.59832">
        <ele>305</ele>
        <time>2020-07-22T14:25:51.000Z</time>
      </trkpt>
      <trkpt lat="46.14893" lon="4.59848">
        <ele>306.39999389648</ele>
        <time>2020-07-22T14:25:54.000Z</time>
      </trkpt>
      <trkpt lat="46.1489" lon="4.59869">
        <ele>308.20001220703</ele>
        <time>2020-07-22T14:25:58.000Z</time>
      </trkpt>
      <trkpt lat="46.14889" lon="4.5988">
        <ele>309.20001220703</ele>
        <time>2020-07-22T14:26:00.000Z</time>
      </trkpt>
      <trkpt lat="46.14887" lon="4.59897">
        <ele>311</ele>
        <time>2020-07-22T14:26:03.000Z</time>
      </trkpt>
      <trkpt lat="46.14884" lon="4.59928">
        <ele>314</ele>
        <time>2020-07-22T14:26:09.000Z</time>
      </trkpt>
      <trkpt lat="46.14882" lon="4.59938">
        <ele>315</ele>
        <time>2020-07-22T14:26:11.000Z</time>
      </trkpt>
      <trkpt lat="46.14882" lon="4.59943">
        <ele>315.20001220703</ele>
        <time>2020-07-22T14:26:12.000Z</time>
      </trkpt>
      <trkpt lat="46.14878" lon="4.59968">
        <ele>316.20001220703</ele>
        <time>2020-07-22T14:26:17.000Z</time>
      </trkpt>
      <trkpt lat="46.14874" lon="4.59982">
        <ele>316.39999389648</ele>
        <time>2020-07-22T14:26:20.000Z</time>
      </trkpt>
      <trkpt lat="46.14873" lon="4.59987">
        <ele>316.39999389648</ele>
        <time>2020-07-22T14:26:21.000Z</time>
      </trkpt>
      <trkpt lat="46.14869" lon="4.6">
        <ele>316.60000610352</ele>
        <time>2020-07-22T14:26:24.000Z</time>
      </trkpt>
      <trkpt lat="46.14864" lon="4.60012">
        <ele>316.60000610352</ele>
        <time>2020-07-22T14:26:27.000Z</time>
      </trkpt>
      <trkpt lat="46.14861" lon="4.60021">
        <ele>316.39999389648</ele>
        <time>2020-07-22T14:26:29.000Z</time>
      </trkpt>
      <trkpt lat="46.14856" lon="4.60033">
        <ele>316.39999389648</ele>
        <time>2020-07-22T14:26:32.000Z</time>
      </trkpt>
      <trkpt lat="46.14853" lon="4.60042">
        <ele>316.20001220703</ele>
        <time>2020-07-22T14:26:34.000Z</time>
      </trkpt>
      <trkpt lat="46.14845" lon="4.60065">
        <ele>315.60000610352</ele>
        <time>2020-07-22T14:26:40.000Z</time>
      </trkpt>
      <trkpt lat="46.14843" lon="4.60079">
        <ele>316.20001220703</ele>
        <time>2020-07-22T14:26:43.000Z</time>
      </trkpt>
      <trkpt lat="46.14843" lon="4.60097">
        <ele>318.60000610352</ele>
        <time>2020-07-22T14:26:47.000Z</time>
      </trkpt>
      <trkpt lat="46.14847" lon="4.60119">
        <ele>321.60000610352</ele>
        <time>2020-07-22T14:26:52.000Z</time>
      </trkpt>
      <trkpt lat="46.14851" lon="4.60132">
        <ele>322.79998779297</ele>
        <time>2020-07-22T14:26:55.000Z</time>
      </trkpt>
      <trkpt lat="46.14852" lon="4.60136">
        <ele>323.20001220703</ele>
        <time>2020-07-22T14:26:56.000Z</time>
      </trkpt>
      <trkpt lat="46.14858" lon="4.60152">
        <ele>324.79998779297</ele>
        <time>2020-07-22T14:27:00.000Z</time>
      </trkpt>
      <trkpt lat="46.14864" lon="4.60168">
        <ele>326.39999389648</ele>
        <time>2020-07-22T14:27:04.000Z</time>
      </trkpt>
      <trkpt lat="46.14865" lon="4.60172">
        <ele>326.79998779297</ele>
        <time>2020-07-22T14:27:05.000Z</time>
      </trkpt>
      <trkpt lat="46.1487" lon="4.60184">
        <ele>328.39999389648</ele>
        <time>2020-07-22T14:27:08.000Z</time>
      </trkpt>
      <trkpt lat="46.14876" lon="4.60199">
        <ele>330.60000610352</ele>
        <time>2020-07-22T14:27:12.000Z</time>
      </trkpt>
      <trkpt lat="46.14882" lon="4.6022">
        <ele>332.20001220703</ele>
        <time>2020-07-22T14:27:17.000Z</time>
      </trkpt>
      <trkpt lat="46.14881" lon="4.60229">
        <ele>332.39999389648</ele>
        <time>2020-07-22T14:27:19.000Z</time>
      </trkpt>
      <trkpt lat="46.14877" lon="4.60248">
        <ele>332</ele>
        <time>2020-07-22T14:27:24.000Z</time>
      </trkpt>
      <trkpt lat="46.14874" lon="4.60252">
        <ele>331.60000610352</ele>
        <time>2020-07-22T14:27:25.000Z</time>
      </trkpt>
      <trkpt lat="46.14867" lon="4.60259">
        <ele>330.60000610352</ele>
        <time>2020-07-22T14:27:28.000Z</time>
      </trkpt>
      <trkpt lat="46.1486" lon="4.60264">
        <ele>330.60000610352</ele>
        <time>2020-07-22T14:27:31.000Z</time>
      </trkpt>
      <trkpt lat="46.14854" lon="4.60265">
        <ele>330.20001220703</ele>
        <time>2020-07-22T14:27:33.000Z</time>
      </trkpt>
      <trkpt lat="46.14843" lon="4.60267">
        <ele>329.60000610352</ele>
        <time>2020-07-22T14:27:37.000Z</time>
      </trkpt>
      <trkpt lat="46.1484" lon="4.60268">
        <ele>329.39999389648</ele>
        <time>2020-07-22T14:27:38.000Z</time>
      </trkpt>
      <trkpt lat="46.14823" lon="4.60269">
        <ele>328</ele>
        <time>2020-07-22T14:27:44.000Z</time>
      </trkpt>
      <trkpt lat="46.14817" lon="4.6027">
        <ele>327.60000610352</ele>
        <time>2020-07-22T14:27:46.000Z</time>
      </trkpt>
      <trkpt lat="46.148" lon="4.60274">
        <ele>326.20001220703</ele>
        <time>2020-07-22T14:27:52.000Z</time>
      </trkpt>
      <trkpt lat="46.14788" lon="4.60278">
        <ele>326.60000610352</ele>
        <time>2020-07-22T14:27:56.000Z</time>
      </trkpt>
      <trkpt lat="46.14775" lon="4.60285">
        <ele>327.20001220703</ele>
        <time>2020-07-22T14:28:01.000Z</time>
      </trkpt>
      <trkpt lat="46.14767" lon="4.60288">
        <ele>327.39999389648</ele>
        <time>2020-07-22T14:28:04.000Z</time>
      </trkpt>
      <trkpt lat="46.14761" lon="4.60291">
        <ele>327.39999389648</ele>
        <time>2020-07-22T14:28:06.000Z</time>
      </trkpt>
      <trkpt lat="46.14742" lon="4.60299">
        <ele>327.79998779297</ele>
        <time>2020-07-22T14:28:13.000Z</time>
      </trkpt>
      <trkpt lat="46.14725" lon="4.60308">
        <ele>329.20001220703</ele>
        <time>2020-07-22T14:28:19.000Z</time>
      </trkpt>
      <trkpt lat="46.14722" lon="4.60309">
        <ele>329.39999389648</ele>
        <time>2020-07-22T14:28:20.000Z</time>
      </trkpt>
      <trkpt lat="46.14711" lon="4.60313">
        <ele>329.79998779297</ele>
        <time>2020-07-22T14:28:24.000Z</time>
      </trkpt>
      <trkpt lat="46.14697" lon="4.6032">
        <ele>330.60000610352</ele>
        <time>2020-07-22T14:28:29.000Z</time>
      </trkpt>
      <trkpt lat="46.14694" lon="4.60322">
        <ele>330.79998779297</ele>
        <time>2020-07-22T14:28:30.000Z</time>
      </trkpt>
      <trkpt lat="46.14672" lon="4.60332">
        <ele>331.79998779297</ele>
        <time>2020-07-22T14:28:38.000Z</time>
      </trkpt>
      <trkpt lat="46.14661" lon="4.60337">
        <ele>332.20001220703</ele>
        <time>2020-07-22T14:28:42.000Z</time>
      </trkpt>
      <trkpt lat="46.14652" lon="4.60349">
        <ele>333.79998779297</ele>
        <time>2020-07-22T14:28:46.000Z</time>
      </trkpt>
      <trkpt lat="46.14649" lon="4.60365">
        <ele>336.60000610352</ele>
        <time>2020-07-22T14:28:50.000Z</time>
      </trkpt>
      <trkpt lat="46.14649" lon="4.60369">
        <ele>337.39999389648</ele>
        <time>2020-07-22T14:28:51.000Z</time>
      </trkpt>
      <trkpt lat="46.1466" lon="4.60385">
        <ele>340.39999389648</ele>
        <time>2020-07-22T14:28:56.000Z</time>
      </trkpt>
      <trkpt lat="46.14672" lon="4.60389">
        <ele>341.60000610352</ele>
        <time>2020-07-22T14:29:00.000Z</time>
      </trkpt>
      <trkpt lat="46.14675" lon="4.60388">
        <ele>341.60000610352</ele>
        <time>2020-07-22T14:29:01.000Z</time>
      </trkpt>
      <trkpt lat="46.14684" lon="4.60387">
        <ele>341.79998779297</ele>
        <time>2020-07-22T14:29:04.000Z</time>
      </trkpt>
      <trkpt lat="46.14697" lon="4.60386">
        <ele>342.20001220703</ele>
        <time>2020-07-22T14:29:08.000Z</time>
      </trkpt>
      <trkpt lat="46.14715" lon="4.60381">
        <ele>342.39999389648</ele>
        <time>2020-07-22T14:29:14.000Z</time>
      </trkpt>
      <trkpt lat="46.14722" lon="4.60381">
        <ele>342.60000610352</ele>
        <time>2020-07-22T14:29:16.000Z</time>
      </trkpt>
      <trkpt lat="46.1474" lon="4.60378">
        <ele>342.39999389648</ele>
        <time>2020-07-22T14:29:22.000Z</time>
      </trkpt>
      <trkpt lat="46.14743" lon="4.60378">
        <ele>342.39999389648</ele>
        <time>2020-07-22T14:29:23.000Z</time>
      </trkpt>
      <trkpt lat="46.14756" lon="4.60377">
        <ele>342.20001220703</ele>
        <time>2020-07-22T14:29:27.000Z</time>
      </trkpt>
      <trkpt lat="46.14774" lon="4.60379">
        <ele>342.60000610352</ele>
        <time>2020-07-22T14:29:33.000Z</time>
      </trkpt>
      <trkpt lat="46.14781" lon="4.60381">
        <ele>343</ele>
        <time>2020-07-22T14:29:35.000Z</time>
      </trkpt>
      <trkpt lat="46.14793" lon="4.60385">
        <ele>343.60000610352</ele>
        <time>2020-07-22T14:29:39.000Z</time>
      </trkpt>
      <trkpt lat="46.14799" lon="4.60388">
        <ele>344</ele>
        <time>2020-07-22T14:29:41.000Z</time>
      </trkpt>
      <trkpt lat="46.14819" lon="4.60397">
        <ele>345</ele>
        <time>2020-07-22T14:29:48.000Z</time>
      </trkpt>
      <trkpt lat="46.14822" lon="4.60398">
        <ele>345.20001220703</ele>
        <time>2020-07-22T14:29:49.000Z</time>
      </trkpt>
      <trkpt lat="46.14836" lon="4.60405">
        <ele>345.39999389648</ele>
        <time>2020-07-22T14:29:54.000Z</time>
      </trkpt>
      <trkpt lat="46.14839" lon="4.60406">
        <ele>345.39999389648</ele>
        <time>2020-07-22T14:29:55.000Z</time>
      </trkpt>
      <trkpt lat="46.1485" lon="4.60412">
        <ele>346</ele>
        <time>2020-07-22T14:29:59.000Z</time>
      </trkpt>
      <trkpt lat="46.14862" lon="4.60418">
        <ele>346.39999389648</ele>
        <time>2020-07-22T14:30:03.000Z</time>
      </trkpt>
      <trkpt lat="46.14876" lon="4.60426">
        <ele>347</ele>
        <time>2020-07-22T14:30:08.000Z</time>
      </trkpt>
      <trkpt lat="46.14881" lon="4.6043">
        <ele>347.39999389648</ele>
        <time>2020-07-22T14:30:10.000Z</time>
      </trkpt>
      <trkpt lat="46.14887" lon="4.60434">
        <ele>347.79998779297</ele>
        <time>2020-07-22T14:30:12.000Z</time>
      </trkpt>
      <trkpt lat="46.14907" lon="4.60453">
        <ele>350.20001220703</ele>
        <time>2020-07-22T14:30:20.000Z</time>
      </trkpt>
      <trkpt lat="46.14909" lon="4.60455">
        <ele>350.39999389648</ele>
        <time>2020-07-22T14:30:21.000Z</time>
      </trkpt>
      <trkpt lat="46.1492" lon="4.60465">
        <ele>351.60000610352</ele>
        <time>2020-07-22T14:30:25.000Z</time>
      </trkpt>
      <trkpt lat="46.14929" lon="4.60473">
        <ele>352.79998779297</ele>
        <time>2020-07-22T14:30:29.000Z</time>
      </trkpt>
      <trkpt lat="46.14939" lon="4.60483">
        <ele>354.20001220703</ele>
        <time>2020-07-22T14:30:33.000Z</time>
      </trkpt>
      <trkpt lat="46.14946" lon="4.6049">
        <ele>355</ele>
        <time>2020-07-22T14:30:36.000Z</time>
      </trkpt>
      <trkpt lat="46.14958" lon="4.60502">
        <ele>356.60000610352</ele>
        <time>2020-07-22T14:30:41.000Z</time>
      </trkpt>
      <trkpt lat="46.14968" lon="4.60512">
        <ele>358</ele>
        <time>2020-07-22T14:30:45.000Z</time>
      </trkpt>
      <trkpt lat="46.14986" lon="4.60527">
        <ele>360.39999389648</ele>
        <time>2020-07-22T14:30:52.000Z</time>
      </trkpt>
      <trkpt lat="46.14989" lon="4.60529">
        <ele>360.79998779297</ele>
        <time>2020-07-22T14:30:53.000Z</time>
      </trkpt>
      <trkpt lat="46.14997" lon="4.60533">
        <ele>362</ele>
        <time>2020-07-22T14:30:56.000Z</time>
      </trkpt>
      <trkpt lat="46.15009" lon="4.60536">
        <ele>363</ele>
        <time>2020-07-22T14:31:00.000Z</time>
      </trkpt>
      <trkpt lat="46.15018" lon="4.60535">
        <ele>363.39999389648</ele>
        <time>2020-07-22T14:31:03.000Z</time>
      </trkpt>
      <trkpt lat="46.15033" lon="4.60533">
        <ele>364</ele>
        <time>2020-07-22T14:31:08.000Z</time>
      </trkpt>
      <trkpt lat="46.15036" lon="4.60533">
        <ele>364.20001220703</ele>
        <time>2020-07-22T14:31:09.000Z</time>
      </trkpt>
      <trkpt lat="46.15061" lon="4.60528">
        <ele>365.39999389648</ele>
        <time>2020-07-22T14:31:17.000Z</time>
      </trkpt>
      <trkpt lat="46.15073" lon="4.60526">
        <ele>366.79998779297</ele>
        <time>2020-07-22T14:31:21.000Z</time>
      </trkpt>
      <trkpt lat="46.1509" lon="4.60521">
        <ele>368.79998779297</ele>
        <time>2020-07-22T14:31:27.000Z</time>
      </trkpt>
      <trkpt lat="46.15099" lon="4.60517">
        <ele>369.79998779297</ele>
        <time>2020-07-22T14:31:30.000Z</time>
      </trkpt>
      <trkpt lat="46.15113" lon="4.60506">
        <ele>370.79998779297</ele>
        <time>2020-07-22T14:31:35.000Z</time>
      </trkpt>
      <trkpt lat="46.15123" lon="4.60494">
        <ele>371.60000610352</ele>
        <time>2020-07-22T14:31:39.000Z</time>
      </trkpt>
      <trkpt lat="46.15129" lon="4.60485">
        <ele>372.20001220703</ele>
        <time>2020-07-22T14:31:42.000Z</time>
      </trkpt>
      <trkpt lat="46.1513" lon="4.60481">
        <ele>372.20001220703</ele>
        <time>2020-07-22T14:31:43.000Z</time>
      </trkpt>
      <trkpt lat="46.15141" lon="4.60459">
        <ele>372.79998779297</ele>
        <time>2020-07-22T14:31:49.000Z</time>
      </trkpt>
      <trkpt lat="46.15147" lon="4.60449">
        <ele>373.20001220703</ele>
        <time>2020-07-22T14:31:52.000Z</time>
      </trkpt>
      <trkpt lat="46.15155" lon="4.60436">
        <ele>373.60000610352</ele>
        <time>2020-07-22T14:31:56.000Z</time>
      </trkpt>
      <trkpt lat="46.15158" lon="4.60434">
        <ele>373.60000610352</ele>
        <time>2020-07-22T14:31:57.000Z</time>
      </trkpt>
      <trkpt lat="46.15179" lon="4.60419">
        <ele>375.20001220703</ele>
        <time>2020-07-22T14:32:05.000Z</time>
      </trkpt>
      <trkpt lat="46.15204" lon="4.60413">
        <ele>376.79998779297</ele>
        <time>2020-07-22T14:32:13.000Z</time>
      </trkpt>
      <trkpt lat="46.15219" lon="4.60411">
        <ele>378</ele>
        <time>2020-07-22T14:32:18.000Z</time>
      </trkpt>
      <trkpt lat="46.15222" lon="4.6041">
        <ele>378.20001220703</ele>
        <time>2020-07-22T14:32:19.000Z</time>
      </trkpt>
      <trkpt lat="46.15241" lon="4.60409">
        <ele>379</ele>
        <time>2020-07-22T14:32:25.000Z</time>
      </trkpt>
      <trkpt lat="46.15244" lon="4.60408">
        <ele>379</ele>
        <time>2020-07-22T14:32:26.000Z</time>
      </trkpt>
      <trkpt lat="46.15252" lon="4.60406">
        <ele>379.20001220703</ele>
        <time>2020-07-22T14:32:29.000Z</time>
      </trkpt>
      <trkpt lat="46.15267" lon="4.60404">
        <ele>379.60000610352</ele>
        <time>2020-07-22T14:32:34.000Z</time>
      </trkpt>
      <trkpt lat="46.15282" lon="4.60403">
        <ele>380</ele>
        <time>2020-07-22T14:32:39.000Z</time>
      </trkpt>
      <trkpt lat="46.15294" lon="4.60405">
        <ele>380.39999389648</ele>
        <time>2020-07-22T14:32:43.000Z</time>
      </trkpt>
      <trkpt lat="46.15311" lon="4.60416">
        <ele>381.20001220703</ele>
        <time>2020-07-22T14:32:49.000Z</time>
      </trkpt>
      <trkpt lat="46.1532" lon="4.60427">
        <ele>382</ele>
        <time>2020-07-22T14:32:53.000Z</time>
      </trkpt>
      <trkpt lat="46.15329" lon="4.60439">
        <ele>382.79998779297</ele>
        <time>2020-07-22T14:32:57.000Z</time>
      </trkpt>
      <trkpt lat="46.15336" lon="4.60448">
        <ele>383.39999389648</ele>
        <time>2020-07-22T14:33:00.000Z</time>
      </trkpt>
      <trkpt lat="46.15345" lon="4.6046">
        <ele>384.20001220703</ele>
        <time>2020-07-22T14:33:04.000Z</time>
      </trkpt>
      <trkpt lat="46.15347" lon="4.60463">
        <ele>384.20001220703</ele>
        <time>2020-07-22T14:33:05.000Z</time>
      </trkpt>
      <trkpt lat="46.15363" lon="4.60484">
        <ele>385.39999389648</ele>
        <time>2020-07-22T14:33:12.000Z</time>
      </trkpt>
      <trkpt lat="46.15365" lon="4.60486">
        <ele>385.60000610352</ele>
        <time>2020-07-22T14:33:13.000Z</time>
      </trkpt>
      <trkpt lat="46.15372" lon="4.60495">
        <ele>386</ele>
        <time>2020-07-22T14:33:16.000Z</time>
      </trkpt>
      <trkpt lat="46.15383" lon="4.60509">
        <ele>386.79998779297</ele>
        <time>2020-07-22T14:33:21.000Z</time>
      </trkpt>
      <trkpt lat="46.15387" lon="4.60514">
        <ele>387</ele>
        <time>2020-07-22T14:33:23.000Z</time>
      </trkpt>
      <trkpt lat="46.15399" lon="4.60528">
        <ele>387.79998779297</ele>
        <time>2020-07-22T14:33:28.000Z</time>
      </trkpt>
      <trkpt lat="46.15401" lon="4.60531">
        <ele>388</ele>
        <time>2020-07-22T14:33:29.000Z</time>
      </trkpt>
      <trkpt lat="46.15414" lon="4.60546">
        <ele>388.79998779297</ele>
        <time>2020-07-22T14:33:35.000Z</time>
      </trkpt>
      <trkpt lat="46.15419" lon="4.60551">
        <ele>389</ele>
        <time>2020-07-22T14:33:37.000Z</time>
      </trkpt>
      <trkpt lat="46.15435" lon="4.6057">
        <ele>390.20001220703</ele>
        <time>2020-07-22T14:33:44.000Z</time>
      </trkpt>
      <trkpt lat="46.15442" lon="4.60578">
        <ele>390.60000610352</ele>
        <time>2020-07-22T14:33:47.000Z</time>
      </trkpt>
      <trkpt lat="46.15444" lon="4.6058">
        <ele>390.79998779297</ele>
        <time>2020-07-22T14:33:48.000Z</time>
      </trkpt>
      <trkpt lat="46.15456" lon="4.60594">
        <ele>391.60000610352</ele>
        <time>2020-07-22T14:33:53.000Z</time>
      </trkpt>
      <trkpt lat="46.15466" lon="4.60606">
        <ele>392.20001220703</ele>
        <time>2020-07-22T14:33:57.000Z</time>
      </trkpt>
      <trkpt lat="46.15475" lon="4.60617">
        <ele>393</ele>
        <time>2020-07-22T14:34:01.000Z</time>
      </trkpt>
      <trkpt lat="46.15477" lon="4.6062">
        <ele>393</ele>
        <time>2020-07-22T14:34:02.000Z</time>
      </trkpt>
      <trkpt lat="46.15499" lon="4.60647">
        <ele>394.20001220703</ele>
        <time>2020-07-22T14:34:11.000Z</time>
      </trkpt>
      <trkpt lat="46.15502" lon="4.6065">
        <ele>394.39999389648</ele>
        <time>2020-07-22T14:34:12.000Z</time>
      </trkpt>
      <trkpt lat="46.15517" lon="4.60674">
        <ele>395.39999389648</ele>
        <time>2020-07-22T14:34:19.000Z</time>
      </trkpt>
      <trkpt lat="46.15524" lon="4.60685">
        <ele>396</ele>
        <time>2020-07-22T14:34:22.000Z</time>
      </trkpt>
      <trkpt lat="46.15535" lon="4.60704">
        <ele>396.79998779297</ele>
        <time>2020-07-22T14:34:27.000Z</time>
      </trkpt>
      <trkpt lat="46.15546" lon="4.60724">
        <ele>397.79998779297</ele>
        <time>2020-07-22T14:34:32.000Z</time>
      </trkpt>
      <trkpt lat="46.15551" lon="4.60733">
        <ele>398.39999389648</ele>
        <time>2020-07-22T14:34:34.000Z</time>
      </trkpt>
      <trkpt lat="46.15569" lon="4.60765">
        <ele>400.39999389648</ele>
        <time>2020-07-22T14:34:41.000Z</time>
      </trkpt>
      <trkpt lat="46.15581" lon="4.60788">
        <ele>402</ele>
        <time>2020-07-22T14:34:46.000Z</time>
      </trkpt>
      <trkpt lat="46.15592" lon="4.60806">
        <ele>403</ele>
        <time>2020-07-22T14:34:50.000Z</time>
      </trkpt>
      <trkpt lat="46.15605" lon="4.60839">
        <ele>404</ele>
        <time>2020-07-22T14:34:56.000Z</time>
      </trkpt>
      <trkpt lat="46.15617" lon="4.60871">
        <ele>404.20001220703</ele>
        <time>2020-07-22T14:35:01.000Z</time>
      </trkpt>
      <trkpt lat="46.15622" lon="4.60885">
        <ele>404.20001220703</ele>
        <time>2020-07-22T14:35:03.000Z</time>
      </trkpt>
      <trkpt lat="46.15636" lon="4.60913">
        <ele>404</ele>
        <time>2020-07-22T14:35:07.000Z</time>
      </trkpt>
      <trkpt lat="46.15649" lon="4.60933">
        <ele>404.39999389648</ele>
        <time>2020-07-22T14:35:10.000Z</time>
      </trkpt>
      <trkpt lat="46.15654" lon="4.60939">
        <ele>404.60000610352</ele>
        <time>2020-07-22T14:35:11.000Z</time>
      </trkpt>
      <trkpt lat="46.1567" lon="4.60957">
        <ele>405.60000610352</ele>
        <time>2020-07-22T14:35:14.000Z</time>
      </trkpt>
      <trkpt lat="46.15675" lon="4.60964">
        <ele>405.60000610352</ele>
        <time>2020-07-22T14:35:15.000Z</time>
      </trkpt>
      <trkpt lat="46.15678" lon="4.60973">
        <ele>405.39999389648</ele>
        <time>2020-07-22T14:35:16.000Z</time>
      </trkpt>
      <trkpt lat="46.15678" lon="4.60999">
        <ele>404</ele>
        <time>2020-07-22T14:35:19.000Z</time>
      </trkpt>
      <trkpt lat="46.15667" lon="4.61022">
        <ele>401.79998779297</ele>
        <time>2020-07-22T14:35:23.000Z</time>
      </trkpt>
      <trkpt lat="46.15663" lon="4.61027">
        <ele>401.20001220703</ele>
        <time>2020-07-22T14:35:24.000Z</time>
      </trkpt>
      <trkpt lat="46.15648" lon="4.61053">
        <ele>401.39999389648</ele>
        <time>2020-07-22T14:35:29.000Z</time>
      </trkpt>
      <trkpt lat="46.15645" lon="4.61057">
        <ele>401.20001220703</ele>
        <time>2020-07-22T14:35:30.000Z</time>
      </trkpt>
      <trkpt lat="46.15633" lon="4.61077">
        <ele>402</ele>
        <time>2020-07-22T14:35:34.000Z</time>
      </trkpt>
      <trkpt lat="46.15625" lon="4.61094">
        <ele>402.79998779297</ele>
        <time>2020-07-22T14:35:37.000Z</time>
      </trkpt>
      <trkpt lat="46.15622" lon="4.61099">
        <ele>402.79998779297</ele>
        <time>2020-07-22T14:35:38.000Z</time>
      </trkpt>
      <trkpt lat="46.15613" lon="4.61121">
        <ele>401.60000610352</ele>
        <time>2020-07-22T14:35:42.000Z</time>
      </trkpt>
      <trkpt lat="46.15611" lon="4.61127">
        <ele>401.79998779297</ele>
        <time>2020-07-22T14:35:43.000Z</time>
      </trkpt>
      <trkpt lat="46.15609" lon="4.61133">
        <ele>402</ele>
        <time>2020-07-22T14:35:44.000Z</time>
      </trkpt>
      <trkpt lat="46.15606" lon="4.61145">
        <ele>402.60000610352</ele>
        <time>2020-07-22T14:35:46.000Z</time>
      </trkpt>
      <trkpt lat="46.15603" lon="4.61165">
        <ele>404</ele>
        <time>2020-07-22T14:35:49.000Z</time>
      </trkpt>
      <trkpt lat="46.15603" lon="4.61171">
        <ele>404.60000610352</ele>
        <time>2020-07-22T14:35:50.000Z</time>
      </trkpt>
      <trkpt lat="46.15603" lon="4.61184">
        <ele>406</ele>
        <time>2020-07-22T14:35:52.000Z</time>
      </trkpt>
      <trkpt lat="46.15605" lon="4.6121">
        <ele>408.39999389648</ele>
        <time>2020-07-22T14:35:56.000Z</time>
      </trkpt>
      <trkpt lat="46.15609" lon="4.61255">
        <ele>409.20001220703</ele>
        <time>2020-07-22T14:36:02.000Z</time>
      </trkpt>
      <trkpt lat="46.15611" lon="4.61263">
        <ele>409.39999389648</ele>
        <time>2020-07-22T14:36:03.000Z</time>
      </trkpt>
      <trkpt lat="46.15618" lon="4.61339">
        <ele>409.60000610352</ele>
        <time>2020-07-22T14:36:12.000Z</time>
      </trkpt>
      <trkpt lat="46.15617" lon="4.61389">
        <ele>408.79998779297</ele>
        <time>2020-07-22T14:36:19.000Z</time>
      </trkpt>
      <trkpt lat="46.15613" lon="4.61426">
        <ele>408.20001220703</ele>
        <time>2020-07-22T14:36:26.000Z</time>
      </trkpt>
      <trkpt lat="46.15612" lon="4.61434">
        <ele>408.39999389648</ele>
        <time>2020-07-22T14:36:28.000Z</time>
      </trkpt>
      <trkpt lat="46.1561" lon="4.6145">
        <ele>408.79998779297</ele>
        <time>2020-07-22T14:36:33.000Z</time>
      </trkpt>
      <trkpt lat="46.15608" lon="4.61475">
        <ele>409.79998779297</ele>
        <time>2020-07-22T14:36:39.000Z</time>
      </trkpt>
      <trkpt lat="46.15607" lon="4.61481">
        <ele>409.79998779297</ele>
        <time>2020-07-22T14:36:40.000Z</time>
      </trkpt>
      <trkpt lat="46.15606" lon="4.61487">
        <ele>410</ele>
        <time>2020-07-22T14:36:41.000Z</time>
      </trkpt>
      <trkpt lat="46.15604" lon="4.61508">
        <ele>410.60000610352</ele>
        <time>2020-07-22T14:36:44.000Z</time>
      </trkpt>
      <trkpt lat="46.15606" lon="4.61547">
        <ele>412</ele>
        <time>2020-07-22T14:36:50.000Z</time>
      </trkpt>
      <trkpt lat="46.15606" lon="4.61553">
        <ele>412.20001220703</ele>
        <time>2020-07-22T14:36:51.000Z</time>
      </trkpt>
      <trkpt lat="46.15612" lon="4.61599">
        <ele>413.20001220703</ele>
        <time>2020-07-22T14:36:58.000Z</time>
      </trkpt>
      <trkpt lat="46.15626" lon="4.6164">
        <ele>413.20001220703</ele>
        <time>2020-07-22T14:37:04.000Z</time>
      </trkpt>
      <trkpt lat="46.15651" lon="4.61673">
        <ele>413.79998779297</ele>
        <time>2020-07-22T14:37:09.000Z</time>
      </trkpt>
      <trkpt lat="46.15677" lon="4.61695">
        <ele>415.79998779297</ele>
        <time>2020-07-22T14:37:13.000Z</time>
      </trkpt>
      <trkpt lat="46.1569" lon="4.6171">
        <ele>417</ele>
        <time>2020-07-22T14:37:15.000Z</time>
      </trkpt>
      <trkpt lat="46.15698" lon="4.6173">
        <ele>417.60000610352</ele>
        <time>2020-07-22T14:37:17.000Z</time>
      </trkpt>
      <trkpt lat="46.15699" lon="4.61741">
        <ele>417.60000610352</ele>
        <time>2020-07-22T14:37:18.000Z</time>
      </trkpt>
      <trkpt lat="46.15699" lon="4.6177">
        <ele>415.60000610352</ele>
        <time>2020-07-22T14:37:21.000Z</time>
      </trkpt>
      <trkpt lat="46.15698" lon="4.61787">
        <ele>413.39999389648</ele>
        <time>2020-07-22T14:37:23.000Z</time>
      </trkpt>
      <trkpt lat="46.15696" lon="4.6184">
        <ele>414.20001220703</ele>
        <time>2020-07-22T14:37:29.000Z</time>
      </trkpt>
      <trkpt lat="46.15697" lon="4.61848">
        <ele>414.39999389648</ele>
        <time>2020-07-22T14:37:30.000Z</time>
      </trkpt>
      <trkpt lat="46.15703" lon="4.6188">
        <ele>415.20001220703</ele>
        <time>2020-07-22T14:37:34.000Z</time>
      </trkpt>
      <trkpt lat="46.15713" lon="4.61913">
        <ele>416</ele>
        <time>2020-07-22T14:37:38.000Z</time>
      </trkpt>
      <trkpt lat="46.15718" lon="4.61928">
        <ele>416.60000610352</ele>
        <time>2020-07-22T14:37:40.000Z</time>
      </trkpt>
      <trkpt lat="46.15729" lon="4.61965">
        <ele>417.39999389648</ele>
        <time>2020-07-22T14:37:45.000Z</time>
      </trkpt>
      <trkpt lat="46.15736" lon="4.61986">
        <ele>417.79998779297</ele>
        <time>2020-07-22T14:37:48.000Z</time>
      </trkpt>
      <trkpt lat="46.1575" lon="4.62026">
        <ele>419</ele>
        <time>2020-07-22T14:37:54.000Z</time>
      </trkpt>
      <trkpt lat="46.15759" lon="4.62045">
        <ele>419.79998779297</ele>
        <time>2020-07-22T14:37:57.000Z</time>
      </trkpt>
      <trkpt lat="46.15766" lon="4.62056">
        <ele>420.39999389648</ele>
        <time>2020-07-22T14:37:59.000Z</time>
      </trkpt>
      <trkpt lat="46.15782" lon="4.62076">
        <ele>422.79998779297</ele>
        <time>2020-07-22T14:38:03.000Z</time>
      </trkpt>
      <trkpt lat="46.15799" lon="4.62102">
        <ele>424.60000610352</ele>
        <time>2020-07-22T14:38:08.000Z</time>
      </trkpt>
      <trkpt lat="46.15801" lon="4.62109">
        <ele>424.39999389648</ele>
        <time>2020-07-22T14:38:09.000Z</time>
      </trkpt>
      <trkpt lat="46.15809" lon="4.62148">
        <ele>422.79998779297</ele>
        <time>2020-07-22T14:38:15.000Z</time>
      </trkpt>
      <trkpt lat="46.15814" lon="4.62165">
        <ele>422.20001220703</ele>
        <time>2020-07-22T14:38:18.000Z</time>
      </trkpt>
      <trkpt lat="46.15818" lon="4.62176">
        <ele>422</ele>
        <time>2020-07-22T14:38:20.000Z</time>
      </trkpt>
      <trkpt lat="46.15823" lon="4.62185">
        <ele>422.20001220703</ele>
        <time>2020-07-22T14:38:22.000Z</time>
      </trkpt>
      <trkpt lat="46.15825" lon="4.62189">
        <ele>422.39999389648</ele>
        <time>2020-07-22T14:38:23.000Z</time>
      </trkpt>
      <trkpt lat="46.15831" lon="4.62197">
        <ele>422.79998779297</ele>
        <time>2020-07-22T14:38:25.000Z</time>
      </trkpt>
      <trkpt lat="46.15838" lon="4.62206">
        <ele>423.39999389648</ele>
        <time>2020-07-22T14:38:27.000Z</time>
      </trkpt>
      <trkpt lat="46.15848" lon="4.62217">
        <ele>424.39999389648</ele>
        <time>2020-07-22T14:38:30.000Z</time>
      </trkpt>
      <trkpt lat="46.15864" lon="4.62236">
        <ele>425.79998779297</ele>
        <time>2020-07-22T14:38:35.000Z</time>
      </trkpt>
      <trkpt lat="46.1588" lon="4.62253">
        <ele>427.39999389648</ele>
        <time>2020-07-22T14:38:40.000Z</time>
      </trkpt>
      <trkpt lat="46.15883" lon="4.62257">
        <ele>427.60000610352</ele>
        <time>2020-07-22T14:38:41.000Z</time>
      </trkpt>
      <trkpt lat="46.15889" lon="4.62264">
        <ele>428.20001220703</ele>
        <time>2020-07-22T14:38:43.000Z</time>
      </trkpt>
      <trkpt lat="46.15901" lon="4.62277">
        <ele>429</ele>
        <time>2020-07-22T14:38:47.000Z</time>
      </trkpt>
      <trkpt lat="46.1591" lon="4.62288">
        <ele>429.60000610352</ele>
        <time>2020-07-22T14:38:50.000Z</time>
      </trkpt>
      <trkpt lat="46.15913" lon="4.62291">
        <ele>429.60000610352</ele>
        <time>2020-07-22T14:38:51.000Z</time>
      </trkpt>
      <trkpt lat="46.15925" lon="4.62306">
        <ele>430.39999389648</ele>
        <time>2020-07-22T14:38:55.000Z</time>
      </trkpt>
      <trkpt lat="46.15929" lon="4.62314">
        <ele>430.39999389648</ele>
        <time>2020-07-22T14:38:57.000Z</time>
      </trkpt>
      <trkpt lat="46.15941" lon="4.62343">
        <ele>430.20001220703</ele>
        <time>2020-07-22T14:39:03.000Z</time>
      </trkpt>
      <trkpt lat="46.15943" lon="4.62348">
        <ele>430</ele>
        <time>2020-07-22T14:39:04.000Z</time>
      </trkpt>
      <trkpt lat="46.15948" lon="4.62379">
        <ele>429.20001220703</ele>
        <time>2020-07-22T14:39:10.000Z</time>
      </trkpt>
      <trkpt lat="46.15949" lon="4.62384">
        <ele>429.20001220703</ele>
        <time>2020-07-22T14:39:11.000Z</time>
      </trkpt>
      <trkpt lat="46.1595" lon="4.62395">
        <ele>429</ele>
        <time>2020-07-22T14:39:13.000Z</time>
      </trkpt>
      <trkpt lat="46.15951" lon="4.62416">
        <ele>428.60000610352</ele>
        <time>2020-07-22T14:39:17.000Z</time>
      </trkpt>
      <trkpt lat="46.15951" lon="4.62426">
        <ele>428.60000610352</ele>
        <time>2020-07-22T14:39:19.000Z</time>
      </trkpt>
      <trkpt lat="46.15951" lon="4.62457">
        <ele>428.79998779297</ele>
        <time>2020-07-22T14:39:25.000Z</time>
      </trkpt>
      <trkpt lat="46.15951" lon="4.62462">
        <ele>429</ele>
        <time>2020-07-22T14:39:26.000Z</time>
      </trkpt>
      <trkpt lat="46.15953" lon="4.62482">
        <ele>429.39999389648</ele>
        <time>2020-07-22T14:39:30.000Z</time>
      </trkpt>
      <trkpt lat="46.15955" lon="4.62502">
        <ele>429.79998779297</ele>
        <time>2020-07-22T14:39:34.000Z</time>
      </trkpt>
      <trkpt lat="46.15956" lon="4.62512">
        <ele>430.20001220703</ele>
        <time>2020-07-22T14:39:36.000Z</time>
      </trkpt>
      <trkpt lat="46.15961" lon="4.62541">
        <ele>431.39999389648</ele>
        <time>2020-07-22T14:39:42.000Z</time>
      </trkpt>
      <trkpt lat="46.15962" lon="4.62546">
        <ele>431.39999389648</ele>
        <time>2020-07-22T14:39:43.000Z</time>
      </trkpt>
      <trkpt lat="46.15972" lon="4.6258">
        <ele>432.39999389648</ele>
        <time>2020-07-22T14:39:50.000Z</time>
      </trkpt>
      <trkpt lat="46.15974" lon="4.62584">
        <ele>432.60000610352</ele>
        <time>2020-07-22T14:39:51.000Z</time>
      </trkpt>
      <trkpt lat="46.15982" lon="4.62597">
        <ele>433.20001220703</ele>
        <time>2020-07-22T14:39:54.000Z</time>
      </trkpt>
      <trkpt lat="46.15989" lon="4.62605">
        <ele>433.60000610352</ele>
        <time>2020-07-22T14:39:56.000Z</time>
      </trkpt>
      <trkpt lat="46.15993" lon="4.62608">
        <ele>433.79998779297</ele>
        <time>2020-07-22T14:39:57.000Z</time>
      </trkpt>
      <trkpt lat="46.16021" lon="4.62622">
        <ele>434.79998779297</ele>
        <time>2020-07-22T14:40:03.000Z</time>
      </trkpt>
      <trkpt lat="46.16041" lon="4.62628">
        <ele>435.20001220703</ele>
        <time>2020-07-22T14:40:07.000Z</time>
      </trkpt>
      <trkpt lat="46.16061" lon="4.62636">
        <ele>435.60000610352</ele>
        <time>2020-07-22T14:40:11.000Z</time>
      </trkpt>
      <trkpt lat="46.16091" lon="4.62646">
        <ele>436.79998779297</ele>
        <time>2020-07-22T14:40:17.000Z</time>
      </trkpt>
      <trkpt lat="46.16116" lon="4.62655">
        <ele>438.20001220703</ele>
        <time>2020-07-22T14:40:22.000Z</time>
      </trkpt>
      <trkpt lat="46.1613" lon="4.62659">
        <ele>439.20001220703</ele>
        <time>2020-07-22T14:40:25.000Z</time>
      </trkpt>
      <trkpt lat="46.16157" lon="4.6267">
        <ele>441</ele>
        <time>2020-07-22T14:40:31.000Z</time>
      </trkpt>
      <trkpt lat="46.16186" lon="4.62693">
        <ele>442.20001220703</ele>
        <time>2020-07-22T14:40:38.000Z</time>
      </trkpt>
      <trkpt lat="46.16213" lon="4.6272">
        <ele>443.60000610352</ele>
        <time>2020-07-22T14:40:45.000Z</time>
      </trkpt>
      <trkpt lat="46.16217" lon="4.62724">
        <ele>444</ele>
        <time>2020-07-22T14:40:46.000Z</time>
      </trkpt>
      <trkpt lat="46.16232" lon="4.62739">
        <ele>445</ele>
        <time>2020-07-22T14:40:50.000Z</time>
      </trkpt>
      <trkpt lat="46.16247" lon="4.62753">
        <ele>446.20001220703</ele>
        <time>2020-07-22T14:40:54.000Z</time>
      </trkpt>
      <trkpt lat="46.16251" lon="4.62757">
        <ele>446.39999389648</ele>
        <time>2020-07-22T14:40:55.000Z</time>
      </trkpt>
      <trkpt lat="46.16266" lon="4.6277">
        <ele>447.60000610352</ele>
        <time>2020-07-22T14:40:59.000Z</time>
      </trkpt>
      <trkpt lat="46.16276" lon="4.6278">
        <ele>448.39999389648</ele>
        <time>2020-07-22T14:41:02.000Z</time>
      </trkpt>
      <trkpt lat="46.1629" lon="4.62793">
        <ele>449.39999389648</ele>
        <time>2020-07-22T14:41:06.000Z</time>
      </trkpt>
      <trkpt lat="46.163" lon="4.62804">
        <ele>450</ele>
        <time>2020-07-22T14:41:09.000Z</time>
      </trkpt>
      <trkpt lat="46.1631" lon="4.62817">
        <ele>450.60000610352</ele>
        <time>2020-07-22T14:41:12.000Z</time>
      </trkpt>
      <trkpt lat="46.16322" lon="4.62833">
        <ele>451.20001220703</ele>
        <time>2020-07-22T14:41:16.000Z</time>
      </trkpt>
      <trkpt lat="46.16324" lon="4.62838">
        <ele>451.20001220703</ele>
        <time>2020-07-22T14:41:17.000Z</time>
      </trkpt>
      <trkpt lat="46.16331" lon="4.62846">
        <ele>451.60000610352</ele>
        <time>2020-07-22T14:41:19.000Z</time>
      </trkpt>
      <trkpt lat="46.16336" lon="4.62855">
        <ele>451.79998779297</ele>
        <time>2020-07-22T14:41:21.000Z</time>
      </trkpt>
      <trkpt lat="46.16344" lon="4.62868">
        <ele>452.20001220703</ele>
        <time>2020-07-22T14:41:24.000Z</time>
      </trkpt>
      <trkpt lat="46.16354" lon="4.62885">
        <ele>452.79998779297</ele>
        <time>2020-07-22T14:41:28.000Z</time>
      </trkpt>
      <trkpt lat="46.16359" lon="4.62893">
        <ele>453</ele>
        <time>2020-07-22T14:41:30.000Z</time>
      </trkpt>
      <trkpt lat="46.16369" lon="4.6291">
        <ele>453.60000610352</ele>
        <time>2020-07-22T14:41:34.000Z</time>
      </trkpt>
      <trkpt lat="46.16374" lon="4.62918">
        <ele>454</ele>
        <time>2020-07-22T14:41:36.000Z</time>
      </trkpt>
      <trkpt lat="46.16383" lon="4.62931">
        <ele>454.39999389648</ele>
        <time>2020-07-22T14:41:39.000Z</time>
      </trkpt>
      <trkpt lat="46.16391" lon="4.62944">
        <ele>455</ele>
        <time>2020-07-22T14:41:42.000Z</time>
      </trkpt>
      <trkpt lat="46.16394" lon="4.62949">
        <ele>455.20001220703</ele>
        <time>2020-07-22T14:41:43.000Z</time>
      </trkpt>
      <trkpt lat="46.16405" lon="4.62966">
        <ele>456.39999389648</ele>
        <time>2020-07-22T14:41:47.000Z</time>
      </trkpt>
      <trkpt lat="46.16413" lon="4.62981">
        <ele>457.39999389648</ele>
        <time>2020-07-22T14:41:50.000Z</time>
      </trkpt>
      <trkpt lat="46.16416" lon="4.62985">
        <ele>457.60000610352</ele>
        <time>2020-07-22T14:41:51.000Z</time>
      </trkpt>
      <trkpt lat="46.16424" lon="4.62998">
        <ele>458.79998779297</ele>
        <time>2020-07-22T14:41:54.000Z</time>
      </trkpt>
      <trkpt lat="46.1643" lon="4.63007">
        <ele>459.39999389648</ele>
        <time>2020-07-22T14:41:56.000Z</time>
      </trkpt>
      <trkpt lat="46.16433" lon="4.63011">
        <ele>459.79998779297</ele>
        <time>2020-07-22T14:41:57.000Z</time>
      </trkpt>
      <trkpt lat="46.16458" lon="4.63043">
        <ele>462.60000610352</ele>
        <time>2020-07-22T14:42:04.000Z</time>
      </trkpt>
      <trkpt lat="46.16462" lon="4.63047">
        <ele>462.79998779297</ele>
        <time>2020-07-22T14:42:05.000Z</time>
      </trkpt>
      <trkpt lat="46.16485" lon="4.63066">
        <ele>465.39999389648</ele>
        <time>2020-07-22T14:42:10.000Z</time>
      </trkpt>
      <trkpt lat="46.16512" lon="4.63094">
        <ele>468.39999389648</ele>
        <time>2020-07-22T14:42:16.000Z</time>
      </trkpt>
      <trkpt lat="46.16539" lon="4.63131">
        <ele>469.79998779297</ele>
        <time>2020-07-22T14:42:23.000Z</time>
      </trkpt>
      <trkpt lat="46.16566" lon="4.63161">
        <ele>471.39999389648</ele>
        <time>2020-07-22T14:42:30.000Z</time>
      </trkpt>
      <trkpt lat="46.16587" lon="4.63189">
        <ele>472.79998779297</ele>
        <time>2020-07-22T14:42:36.000Z</time>
      </trkpt>
      <trkpt lat="46.16592" lon="4.63201">
        <ele>472.20001220703</ele>
        <time>2020-07-22T14:42:38.000Z</time>
      </trkpt>
      <trkpt lat="46.16595" lon="4.63227">
        <ele>469.60000610352</ele>
        <time>2020-07-22T14:42:42.000Z</time>
      </trkpt>
      <trkpt lat="46.16595" lon="4.63233">
        <ele>468.60000610352</ele>
        <time>2020-07-22T14:42:43.000Z</time>
      </trkpt>
      <trkpt lat="46.16592" lon="4.63251">
        <ele>466</ele>
        <time>2020-07-22T14:42:46.000Z</time>
      </trkpt>
      <trkpt lat="46.16589" lon="4.63268">
        <ele>463.39999389648</ele>
        <time>2020-07-22T14:42:49.000Z</time>
      </trkpt>
      <trkpt lat="46.16588" lon="4.63286">
        <ele>461.39999389648</ele>
        <time>2020-07-22T14:42:52.000Z</time>
      </trkpt>
      <trkpt lat="46.16588" lon="4.63292">
        <ele>460.79998779297</ele>
        <time>2020-07-22T14:42:53.000Z</time>
      </trkpt>
      <trkpt lat="46.1659" lon="4.63304">
        <ele>460.39999389648</ele>
        <time>2020-07-22T14:42:55.000Z</time>
      </trkpt>
      <trkpt lat="46.16591" lon="4.6331">
        <ele>460.20001220703</ele>
        <time>2020-07-22T14:42:56.000Z</time>
      </trkpt>
      <trkpt lat="46.16593" lon="4.63316">
        <ele>460.20001220703</ele>
        <time>2020-07-22T14:42:57.000Z</time>
      </trkpt>
      <trkpt lat="46.16597" lon="4.63327">
        <ele>461</ele>
        <time>2020-07-22T14:42:59.000Z</time>
      </trkpt>
      <trkpt lat="46.16599" lon="4.63333">
        <ele>461.39999389648</ele>
        <time>2020-07-22T14:43:00.000Z</time>
      </trkpt>
      <trkpt lat="46.16602" lon="4.63338">
        <ele>462</ele>
        <time>2020-07-22T14:43:01.000Z</time>
      </trkpt>
      <trkpt lat="46.16607" lon="4.63348">
        <ele>463</ele>
        <time>2020-07-22T14:43:03.000Z</time>
      </trkpt>
      <trkpt lat="46.16619" lon="4.63372">
        <ele>465.20001220703</ele>
        <time>2020-07-22T14:43:08.000Z</time>
      </trkpt>
      <trkpt lat="46.16622" lon="4.63376">
        <ele>465.20001220703</ele>
        <time>2020-07-22T14:43:09.000Z</time>
      </trkpt>
      <trkpt lat="46.16631" lon="4.63389">
        <ele>465.39999389648</ele>
        <time>2020-07-22T14:43:12.000Z</time>
      </trkpt>
      <trkpt lat="46.16642" lon="4.63399">
        <ele>466.20001220703</ele>
        <time>2020-07-22T14:43:15.000Z</time>
      </trkpt>
      <trkpt lat="46.16645" lon="4.63402">
        <ele>466.39999389648</ele>
        <time>2020-07-22T14:43:16.000Z</time>
      </trkpt>
      <trkpt lat="46.16649" lon="4.63405">
        <ele>466.60000610352</ele>
        <time>2020-07-22T14:43:17.000Z</time>
      </trkpt>
      <trkpt lat="46.16669" lon="4.63419">
        <ele>467</ele>
        <time>2020-07-22T14:43:22.000Z</time>
      </trkpt>
      <trkpt lat="46.16673" lon="4.63421">
        <ele>467</ele>
        <time>2020-07-22T14:43:23.000Z</time>
      </trkpt>
      <trkpt lat="46.1668" lon="4.63427">
        <ele>467</ele>
        <time>2020-07-22T14:43:25.000Z</time>
      </trkpt>
      <trkpt lat="46.16697" lon="4.63445">
        <ele>466.79998779297</ele>
        <time>2020-07-22T14:43:30.000Z</time>
      </trkpt>
      <trkpt lat="46.16714" lon="4.63471">
        <ele>466.79998779297</ele>
        <time>2020-07-22T14:43:36.000Z</time>
      </trkpt>
      <trkpt lat="46.16729" lon="4.63492">
        <ele>467</ele>
        <time>2020-07-22T14:43:41.000Z</time>
      </trkpt>
      <trkpt lat="46.16735" lon="4.63499">
        <ele>465.79998779297</ele>
        <time>2020-07-22T14:43:43.000Z</time>
      </trkpt>
      <trkpt lat="46.16739" lon="4.635">
        <ele>465</ele>
        <time>2020-07-22T14:43:44.000Z</time>
      </trkpt>
      <trkpt lat="46.16743" lon="4.63502">
        <ele>464.39999389648</ele>
        <time>2020-07-22T14:43:45.000Z</time>
      </trkpt>
      <trkpt lat="46.16756" lon="4.635">
        <ele>462.79998779297</ele>
        <time>2020-07-22T14:43:48.000Z</time>
      </trkpt>
      <trkpt lat="46.16773" lon="4.63481">
        <ele>461.20001220703</ele>
        <time>2020-07-22T14:43:53.000Z</time>
      </trkpt>
      <trkpt lat="46.16781" lon="4.63472">
        <ele>460.79998779297</ele>
        <time>2020-07-22T14:43:55.000Z</time>
      </trkpt>
      <trkpt lat="46.16793" lon="4.63455">
        <ele>460.20001220703</ele>
        <time>2020-07-22T14:43:58.000Z</time>
      </trkpt>
      <trkpt lat="46.16798" lon="4.63449">
        <ele>460</ele>
        <time>2020-07-22T14:43:59.000Z</time>
      </trkpt>
      <trkpt lat="46.16813" lon="4.6343">
        <ele>459.39999389648</ele>
        <time>2020-07-22T14:44:02.000Z</time>
      </trkpt>
      <trkpt lat="46.16823" lon="4.63415">
        <ele>458.60000610352</ele>
        <time>2020-07-22T14:44:04.000Z</time>
      </trkpt>
      <trkpt lat="46.16828" lon="4.63408">
        <ele>458.39999389648</ele>
        <time>2020-07-22T14:44:05.000Z</time>
      </trkpt>
      <trkpt lat="46.16837" lon="4.63391">
        <ele>458</ele>
        <time>2020-07-22T14:44:07.000Z</time>
      </trkpt>
      <trkpt lat="46.1685" lon="4.63361">
        <ele>459</ele>
        <time>2020-07-22T14:44:10.000Z</time>
      </trkpt>
      <trkpt lat="46.16861" lon="4.63341">
        <ele>460.20001220703</ele>
        <time>2020-07-22T14:44:12.000Z</time>
      </trkpt>
      <trkpt lat="46.16876" lon="4.63324">
        <ele>459.79998779297</ele>
        <time>2020-07-22T14:44:14.000Z</time>
      </trkpt>
      <trkpt lat="46.16884" lon="4.63317">
        <ele>459.20001220703</ele>
        <time>2020-07-22T14:44:15.000Z</time>
      </trkpt>
      <trkpt lat="46.16892" lon="4.6331">
        <ele>458.39999389648</ele>
        <time>2020-07-22T14:44:16.000Z</time>
      </trkpt>
      <trkpt lat="46.169" lon="4.63304">
        <ele>458.60000610352</ele>
        <time>2020-07-22T14:44:17.000Z</time>
      </trkpt>
      <trkpt lat="46.16908" lon="4.63297">
        <ele>459</ele>
        <time>2020-07-22T14:44:18.000Z</time>
      </trkpt>
      <trkpt lat="46.16923" lon="4.63281">
        <ele>459</ele>
        <time>2020-07-22T14:44:20.000Z</time>
      </trkpt>
      <trkpt lat="46.16935" lon="4.63259">
        <ele>460.60000610352</ele>
        <time>2020-07-22T14:44:22.000Z</time>
      </trkpt>
      <trkpt lat="46.16946" lon="4.63236">
        <ele>461.79998779297</ele>
        <time>2020-07-22T14:44:24.000Z</time>
      </trkpt>
      <trkpt lat="46.16952" lon="4.63226">
        <ele>461.79998779297</ele>
        <time>2020-07-22T14:44:25.000Z</time>
      </trkpt>
      <trkpt lat="46.16959" lon="4.63217">
        <ele>461.60000610352</ele>
        <time>2020-07-22T14:44:26.000Z</time>
      </trkpt>
      <trkpt lat="46.16973" lon="4.63203">
        <ele>460.60000610352</ele>
        <time>2020-07-22T14:44:28.000Z</time>
      </trkpt>
      <trkpt lat="46.16979" lon="4.63196">
        <ele>460.60000610352</ele>
        <time>2020-07-22T14:44:29.000Z</time>
      </trkpt>
      <trkpt lat="46.16985" lon="4.6319">
        <ele>461.60000610352</ele>
        <time>2020-07-22T14:44:30.000Z</time>
      </trkpt>
      <trkpt lat="46.17012" lon="4.6316">
        <ele>465.79998779297</ele>
        <time>2020-07-22T14:44:35.000Z</time>
      </trkpt>
      <trkpt lat="46.17016" lon="4.63155">
        <ele>466.39999389648</ele>
        <time>2020-07-22T14:44:36.000Z</time>
      </trkpt>
      <trkpt lat="46.17022" lon="4.6315">
        <ele>466.60000610352</ele>
        <time>2020-07-22T14:44:37.000Z</time>
      </trkpt>
      <trkpt lat="46.1704" lon="4.63148">
        <ele>466.60000610352</ele>
        <time>2020-07-22T14:44:40.000Z</time>
      </trkpt>
      <trkpt lat="46.17046" lon="4.63151">
        <ele>466.20001220703</ele>
        <time>2020-07-22T14:44:41.000Z</time>
      </trkpt>
      <trkpt lat="46.17055" lon="4.6316">
        <ele>465.60000610352</ele>
        <time>2020-07-22T14:44:43.000Z</time>
      </trkpt>
      <trkpt lat="46.17058" lon="4.63165">
        <ele>465.20001220703</ele>
        <time>2020-07-22T14:44:44.000Z</time>
      </trkpt>
      <trkpt lat="46.17065" lon="4.63176">
        <ele>465</ele>
        <time>2020-07-22T14:44:46.000Z</time>
      </trkpt>
      <trkpt lat="46.17072" lon="4.63186">
        <ele>465.20001220703</ele>
        <time>2020-07-22T14:44:48.000Z</time>
      </trkpt>
      <trkpt lat="46.17088" lon="4.63211">
        <ele>466.20001220703</ele>
        <time>2020-07-22T14:44:53.000Z</time>
      </trkpt>
      <trkpt lat="46.17091" lon="4.63217">
        <ele>466.60000610352</ele>
        <time>2020-07-22T14:44:54.000Z</time>
      </trkpt>
      <trkpt lat="46.17095" lon="4.63228">
        <ele>467</ele>
        <time>2020-07-22T14:44:56.000Z</time>
      </trkpt>
      <trkpt lat="46.17099" lon="4.63246">
        <ele>467.60000610352</ele>
        <time>2020-07-22T14:44:59.000Z</time>
      </trkpt>
      <trkpt lat="46.17102" lon="4.63259">
        <ele>467.60000610352</ele>
        <time>2020-07-22T14:45:01.000Z</time>
      </trkpt>
      <trkpt lat="46.1711" lon="4.63282">
        <ele>468.39999389648</ele>
        <time>2020-07-22T14:45:05.000Z</time>
      </trkpt>
      <trkpt lat="46.17123" lon="4.63314">
        <ele>468.79998779297</ele>
        <time>2020-07-22T14:45:11.000Z</time>
      </trkpt>
      <trkpt lat="46.17128" lon="4.63325">
        <ele>468.79998779297</ele>
        <time>2020-07-22T14:45:13.000Z</time>
      </trkpt>
      <trkpt lat="46.17135" lon="4.63341">
        <ele>469</ele>
        <time>2020-07-22T14:45:16.000Z</time>
      </trkpt>
      <trkpt lat="46.17141" lon="4.6335">
        <ele>469.39999389648</ele>
        <time>2020-07-22T14:45:18.000Z</time>
      </trkpt>
      <trkpt lat="46.17145" lon="4.63354">
        <ele>469.60000610352</ele>
        <time>2020-07-22T14:45:19.000Z</time>
      </trkpt>
      <trkpt lat="46.17148" lon="4.63359">
        <ele>469.79998779297</ele>
        <time>2020-07-22T14:45:20.000Z</time>
      </trkpt>
      <trkpt lat="46.17163" lon="4.63372">
        <ele>469.79998779297</ele>
        <time>2020-07-22T14:45:24.000Z</time>
      </trkpt>
      <trkpt lat="46.17175" lon="4.6338">
        <ele>470.20001220703</ele>
        <time>2020-07-22T14:45:27.000Z</time>
      </trkpt>
      <trkpt lat="46.17183" lon="4.63385">
        <ele>470.39999389648</ele>
        <time>2020-07-22T14:45:29.000Z</time>
      </trkpt>
      <trkpt lat="46.17214" lon="4.63399">
        <ele>471.39999389648</ele>
        <time>2020-07-22T14:45:36.000Z</time>
      </trkpt>
      <trkpt lat="46.17256" lon="4.63421">
        <ele>471.60000610352</ele>
        <time>2020-07-22T14:45:45.000Z</time>
      </trkpt>
      <trkpt lat="46.1729" lon="4.63442">
        <ele>471</ele>
        <time>2020-07-22T14:45:52.000Z</time>
      </trkpt>
      <trkpt lat="46.17328" lon="4.63473">
        <ele>470.20001220703</ele>
        <time>2020-07-22T14:46:00.000Z</time>
      </trkpt>
      <trkpt lat="46.17344" lon="4.63481">
        <ele>470.39999389648</ele>
        <time>2020-07-22T14:46:03.000Z</time>
      </trkpt>
      <trkpt lat="46.17355" lon="4.63481">
        <ele>470.39999389648</ele>
        <time>2020-07-22T14:46:05.000Z</time>
      </trkpt>
      <trkpt lat="46.17365" lon="4.63479">
        <ele>470.39999389648</ele>
        <time>2020-07-22T14:46:07.000Z</time>
      </trkpt>
      <trkpt lat="46.17375" lon="4.63473">
        <ele>470.60000610352</ele>
        <time>2020-07-22T14:46:09.000Z</time>
      </trkpt>
      <trkpt lat="46.17379" lon="4.63469">
        <ele>470.60000610352</ele>
        <time>2020-07-22T14:46:10.000Z</time>
      </trkpt>
      <trkpt lat="46.17403" lon="4.63446">
        <ele>471.79998779297</ele>
        <time>2020-07-22T14:46:15.000Z</time>
      </trkpt>
      <trkpt lat="46.17417" lon="4.63431">
        <ele>473.39999389648</ele>
        <time>2020-07-22T14:46:18.000Z</time>
      </trkpt>
      <trkpt lat="46.17431" lon="4.63417">
        <ele>474.79998779297</ele>
        <time>2020-07-22T14:46:21.000Z</time>
      </trkpt>
      <trkpt lat="46.17457" lon="4.63391">
        <ele>474.79998779297</ele>
        <time>2020-07-22T14:46:26.000Z</time>
      </trkpt>
      <trkpt lat="46.17464" lon="4.63388">
        <ele>474.60000610352</ele>
        <time>2020-07-22T14:46:27.000Z</time>
      </trkpt>
      <trkpt lat="46.17478" lon="4.63393">
        <ele>474.60000610352</ele>
        <time>2020-07-22T14:46:29.000Z</time>
      </trkpt>
      <trkpt lat="46.17483" lon="4.634">
        <ele>475.60000610352</ele>
        <time>2020-07-22T14:46:30.000Z</time>
      </trkpt>
      <trkpt lat="46.17487" lon="4.63415">
        <ele>476.39999389648</ele>
        <time>2020-07-22T14:46:32.000Z</time>
      </trkpt>
      <trkpt lat="46.17482" lon="4.63438">
        <ele>476.20001220703</ele>
        <time>2020-07-22T14:46:35.000Z</time>
      </trkpt>
      <trkpt lat="46.17479" lon="4.63445">
        <ele>476</ele>
        <time>2020-07-22T14:46:36.000Z</time>
      </trkpt>
      <trkpt lat="46.17465" lon="4.63483">
        <ele>477</ele>
        <time>2020-07-22T14:46:42.000Z</time>
      </trkpt>
      <trkpt lat="46.17456" lon="4.63505">
        <ele>477.79998779297</ele>
        <time>2020-07-22T14:46:46.000Z</time>
      </trkpt>
      <trkpt lat="46.17451" lon="4.63521">
        <ele>477.39999389648</ele>
        <time>2020-07-22T14:46:49.000Z</time>
      </trkpt>
      <trkpt lat="46.17443" lon="4.63542">
        <ele>475.79998779297</ele>
        <time>2020-07-22T14:46:53.000Z</time>
      </trkpt>
      <trkpt lat="46.17441" lon="4.63553">
        <ele>475.60000610352</ele>
        <time>2020-07-22T14:46:55.000Z</time>
      </trkpt>
      <trkpt lat="46.17441" lon="4.63559">
        <ele>475.39999389648</ele>
        <time>2020-07-22T14:46:56.000Z</time>
      </trkpt>
      <trkpt lat="46.17442" lon="4.63578">
        <ele>475.20001220703</ele>
        <time>2020-07-22T14:46:59.000Z</time>
      </trkpt>
      <trkpt lat="46.17443" lon="4.63584">
        <ele>475.39999389648</ele>
        <time>2020-07-22T14:47:00.000Z</time>
      </trkpt>
      <trkpt lat="46.17453" lon="4.63604">
        <ele>477.20001220703</ele>
        <time>2020-07-22T14:47:04.000Z</time>
      </trkpt>
      <trkpt lat="46.17473" lon="4.63618">
        <ele>479.60000610352</ele>
        <time>2020-07-22T14:47:09.000Z</time>
      </trkpt>
      <trkpt lat="46.17477" lon="4.6362">
        <ele>479.79998779297</ele>
        <time>2020-07-22T14:47:10.000Z</time>
      </trkpt>
      <trkpt lat="46.17481" lon="4.63622">
        <ele>479.60000610352</ele>
        <time>2020-07-22T14:47:11.000Z</time>
      </trkpt>
      <trkpt lat="46.17498" lon="4.63633">
        <ele>478.60000610352</ele>
        <time>2020-07-22T14:47:15.000Z</time>
      </trkpt>
      <trkpt lat="46.17518" lon="4.63644">
        <ele>477.60000610352</ele>
        <time>2020-07-22T14:47:19.000Z</time>
      </trkpt>
      <trkpt lat="46.17523" lon="4.63647">
        <ele>477.39999389648</ele>
        <time>2020-07-22T14:47:20.000Z</time>
      </trkpt>
      <trkpt lat="46.17541" lon="4.63657">
        <ele>476.60000610352</ele>
        <time>2020-07-22T14:47:23.000Z</time>
      </trkpt>
      <trkpt lat="46.1756" lon="4.63664">
        <ele>476</ele>
        <time>2020-07-22T14:47:26.000Z</time>
      </trkpt>
      <trkpt lat="46.17575" lon="4.63666">
        <ele>475.20001220703</ele>
        <time>2020-07-22T14:47:28.000Z</time>
      </trkpt>
      <trkpt lat="46.17592" lon="4.63667">
        <ele>474.60000610352</ele>
        <time>2020-07-22T14:47:30.000Z</time>
      </trkpt>
      <trkpt lat="46.17609" lon="4.63669">
        <ele>473.79998779297</ele>
        <time>2020-07-22T14:47:32.000Z</time>
      </trkpt>
      <trkpt lat="46.17637" lon="4.63671">
        <ele>472.39999389648</ele>
        <time>2020-07-22T14:47:35.000Z</time>
      </trkpt>
      <trkpt lat="46.17656" lon="4.63673">
        <ele>472</ele>
        <time>2020-07-22T14:47:37.000Z</time>
      </trkpt>
      <trkpt lat="46.17675" lon="4.63673">
        <ele>472.20001220703</ele>
        <time>2020-07-22T14:47:39.000Z</time>
      </trkpt>
      <trkpt lat="46.17693" lon="4.63672">
        <ele>472.60000610352</ele>
        <time>2020-07-22T14:47:41.000Z</time>
      </trkpt>
      <trkpt lat="46.17702" lon="4.63667">
        <ele>472.39999389648</ele>
        <time>2020-07-22T14:47:42.000Z</time>
      </trkpt>
      <trkpt lat="46.1771" lon="4.6366">
        <ele>471.79998779297</ele>
        <time>2020-07-22T14:47:43.000Z</time>
      </trkpt>
      <trkpt lat="46.17724" lon="4.63643">
        <ele>470.79998779297</ele>
        <time>2020-07-22T14:47:45.000Z</time>
      </trkpt>
      <trkpt lat="46.17735" lon="4.63625">
        <ele>472.39999389648</ele>
        <time>2020-07-22T14:47:47.000Z</time>
      </trkpt>
      <trkpt lat="46.1774" lon="4.63619">
        <ele>472.20001220703</ele>
        <time>2020-07-22T14:47:48.000Z</time>
      </trkpt>
      <trkpt lat="46.17745" lon="4.63615">
        <ele>473.20001220703</ele>
        <time>2020-07-22T14:47:49.000Z</time>
      </trkpt>
      <trkpt lat="46.1776" lon="4.6362">
        <ele>474.20001220703</ele>
        <time>2020-07-22T14:47:51.000Z</time>
      </trkpt>
      <trkpt lat="46.17766" lon="4.63637">
        <ele>476.79998779297</ele>
        <time>2020-07-22T14:47:53.000Z</time>
      </trkpt>
      <trkpt lat="46.17763" lon="4.63665">
        <ele>478.39999389648</ele>
        <time>2020-07-22T14:47:56.000Z</time>
      </trkpt>
      <trkpt lat="46.17761" lon="4.63673">
        <ele>477.60000610352</ele>
        <time>2020-07-22T14:47:57.000Z</time>
      </trkpt>
      <trkpt lat="46.17755" lon="4.63702">
        <ele>475.60000610352</ele>
        <time>2020-07-22T14:48:01.000Z</time>
      </trkpt>
      <trkpt lat="46.17755" lon="4.6371">
        <ele>475.39999389648</ele>
        <time>2020-07-22T14:48:02.000Z</time>
      </trkpt>
      <trkpt lat="46.1775" lon="4.63747">
        <ele>474.20001220703</ele>
        <time>2020-07-22T14:48:07.000Z</time>
      </trkpt>
      <trkpt lat="46.17749" lon="4.63777">
        <ele>474.20001220703</ele>
        <time>2020-07-22T14:48:11.000Z</time>
      </trkpt>
      <trkpt lat="46.17751" lon="4.63792">
        <ele>474</ele>
        <time>2020-07-22T14:48:13.000Z</time>
      </trkpt>
      <trkpt lat="46.17751" lon="4.63799">
        <ele>473.79998779297</ele>
        <time>2020-07-22T14:48:14.000Z</time>
      </trkpt>
      <trkpt lat="46.17755" lon="4.63821">
        <ele>474</ele>
        <time>2020-07-22T14:48:17.000Z</time>
      </trkpt>
      <trkpt lat="46.17759" lon="4.63841">
        <ele>474.60000610352</ele>
        <time>2020-07-22T14:48:20.000Z</time>
      </trkpt>
      <trkpt lat="46.17761" lon="4.63848">
        <ele>475</ele>
        <time>2020-07-22T14:48:21.000Z</time>
      </trkpt>
      <trkpt lat="46.17765" lon="4.6386">
        <ele>475.60000610352</ele>
        <time>2020-07-22T14:48:23.000Z</time>
      </trkpt>
      <trkpt lat="46.1777" lon="4.63872">
        <ele>476</ele>
        <time>2020-07-22T14:48:25.000Z</time>
      </trkpt>
      <trkpt lat="46.17777" lon="4.63882">
        <ele>475.60000610352</ele>
        <time>2020-07-22T14:48:27.000Z</time>
      </trkpt>
      <trkpt lat="46.17781" lon="4.63886">
        <ele>475.60000610352</ele>
        <time>2020-07-22T14:48:28.000Z</time>
      </trkpt>
      <trkpt lat="46.17793" lon="4.63895">
        <ele>476.39999389648</ele>
        <time>2020-07-22T14:48:31.000Z</time>
      </trkpt>
      <trkpt lat="46.17797" lon="4.63897">
        <ele>476.79998779297</ele>
        <time>2020-07-22T14:48:32.000Z</time>
      </trkpt>
      <trkpt lat="46.17801" lon="4.63898">
        <ele>477.20001220703</ele>
        <time>2020-07-22T14:48:33.000Z</time>
      </trkpt>
      <trkpt lat="46.17805" lon="4.639">
        <ele>477.79998779297</ele>
        <time>2020-07-22T14:48:34.000Z</time>
      </trkpt>
      <trkpt lat="46.17822" lon="4.63903">
        <ele>479.20001220703</ele>
        <time>2020-07-22T14:48:38.000Z</time>
      </trkpt>
      <trkpt lat="46.17827" lon="4.63904">
        <ele>479.60000610352</ele>
        <time>2020-07-22T14:48:39.000Z</time>
      </trkpt>
      <trkpt lat="46.17856" lon="4.63902">
        <ele>482.60000610352</ele>
        <time>2020-07-22T14:48:45.000Z</time>
      </trkpt>
      <trkpt lat="46.17861" lon="4.63904">
        <ele>482.79998779297</ele>
        <time>2020-07-22T14:48:46.000Z</time>
      </trkpt>
      <trkpt lat="46.17883" lon="4.63908">
        <ele>484</ele>
        <time>2020-07-22T14:48:50.000Z</time>
      </trkpt>
      <trkpt lat="46.179" lon="4.63913">
        <ele>484.79998779297</ele>
        <time>2020-07-22T14:48:53.000Z</time>
      </trkpt>
      <trkpt lat="46.17911" lon="4.63919">
        <ele>485</ele>
        <time>2020-07-22T14:48:55.000Z</time>
      </trkpt>
      <trkpt lat="46.17923" lon="4.63929">
        <ele>484.60000610352</ele>
        <time>2020-07-22T14:48:57.000Z</time>
      </trkpt>
      <trkpt lat="46.17933" lon="4.63951">
        <ele>482.20001220703</ele>
        <time>2020-07-22T14:49:00.000Z</time>
      </trkpt>
      <trkpt lat="46.17934" lon="4.63967">
        <ele>482.79998779297</ele>
        <time>2020-07-22T14:49:02.000Z</time>
      </trkpt>
      <trkpt lat="46.17934" lon="4.63975">
        <ele>483</ele>
        <time>2020-07-22T14:49:03.000Z</time>
      </trkpt>
      <trkpt lat="46.17935" lon="4.63982">
        <ele>483.39999389648</ele>
        <time>2020-07-22T14:49:04.000Z</time>
      </trkpt>
      <trkpt lat="46.17935" lon="4.64026">
        <ele>481.60000610352</ele>
        <time>2020-07-22T14:49:10.000Z</time>
      </trkpt>
      <trkpt lat="46.17936" lon="4.64033">
        <ele>481.20001220703</ele>
        <time>2020-07-22T14:49:11.000Z</time>
      </trkpt>
      <trkpt lat="46.17939" lon="4.64054">
        <ele>481.20001220703</ele>
        <time>2020-07-22T14:49:14.000Z</time>
      </trkpt>
      <trkpt lat="46.17943" lon="4.64087">
        <ele>481.39999389648</ele>
        <time>2020-07-22T14:49:19.000Z</time>
      </trkpt>
      <trkpt lat="46.17946" lon="4.64113">
        <ele>482.60000610352</ele>
        <time>2020-07-22T14:49:23.000Z</time>
      </trkpt>
      <trkpt lat="46.17948" lon="4.64131">
        <ele>482.20001220703</ele>
        <time>2020-07-22T14:49:26.000Z</time>
      </trkpt>
      <trkpt lat="46.1795" lon="4.64142">
        <ele>481.60000610352</ele>
        <time>2020-07-22T14:49:28.000Z</time>
      </trkpt>
      <trkpt lat="46.17952" lon="4.64157">
        <ele>480.79998779297</ele>
        <time>2020-07-22T14:49:31.000Z</time>
      </trkpt>
      <trkpt lat="46.17955" lon="4.64167">
        <ele>480.60000610352</ele>
        <time>2020-07-22T14:49:34.000Z</time>
      </trkpt>
      <trkpt lat="46.17957" lon="4.64175">
        <ele>480.39999389648</ele>
        <time>2020-07-22T14:49:38.000Z</time>
      </trkpt>
      <trkpt lat="46.17958" lon="4.64178">
        <ele>480.39999389648</ele>
        <time>2020-07-22T14:49:39.000Z</time>
      </trkpt>
      <trkpt lat="46.1796" lon="4.64181">
        <ele>480.39999389648</ele>
        <time>2020-07-22T14:49:40.000Z</time>
      </trkpt>
      <trkpt lat="46.17971" lon="4.64184">
        <ele>482</ele>
        <time>2020-07-22T14:49:43.000Z</time>
      </trkpt>
      <trkpt lat="46.17983" lon="4.6418">
        <ele>483.79998779297</ele>
        <time>2020-07-22T14:49:46.000Z</time>
      </trkpt>
      <trkpt lat="46.17987" lon="4.6418">
        <ele>483.79998779297</ele>
        <time>2020-07-22T14:49:47.000Z</time>
      </trkpt>
      <trkpt lat="46.17996" lon="4.64178">
        <ele>484</ele>
        <time>2020-07-22T14:49:49.000Z</time>
      </trkpt>
      <trkpt lat="46.18004" lon="4.64178">
        <ele>484</ele>
        <time>2020-07-22T14:49:51.000Z</time>
      </trkpt>
      <trkpt lat="46.18013" lon="4.64177">
        <ele>484.20001220703</ele>
        <time>2020-07-22T14:49:53.000Z</time>
      </trkpt>
      <trkpt lat="46.18026" lon="4.64175">
        <ele>484.60000610352</ele>
        <time>2020-07-22T14:49:56.000Z</time>
      </trkpt>
      <trkpt lat="46.18048" lon="4.64173">
        <ele>486.39999389648</ele>
        <time>2020-07-22T14:50:01.000Z</time>
      </trkpt>
      <trkpt lat="46.18052" lon="4.64172">
        <ele>487</ele>
        <time>2020-07-22T14:50:02.000Z</time>
      </trkpt>
      <trkpt lat="46.18057" lon="4.64171">
        <ele>487.79998779297</ele>
        <time>2020-07-22T14:50:03.000Z</time>
      </trkpt>
      <trkpt lat="46.18065" lon="4.64169">
        <ele>488.79998779297</ele>
        <time>2020-07-22T14:50:05.000Z</time>
      </trkpt>
      <trkpt lat="46.18081" lon="4.64164">
        <ele>490.39999389648</ele>
        <time>2020-07-22T14:50:09.000Z</time>
      </trkpt>
      <trkpt lat="46.18094" lon="4.64162">
        <ele>491.39999389648</ele>
        <time>2020-07-22T14:50:12.000Z</time>
      </trkpt>
      <trkpt lat="46.18113" lon="4.6416">
        <ele>493</ele>
        <time>2020-07-22T14:50:17.000Z</time>
      </trkpt>
      <trkpt lat="46.18125" lon="4.64159">
        <ele>494.20001220703</ele>
        <time>2020-07-22T14:50:20.000Z</time>
      </trkpt>
      <trkpt lat="46.18141" lon="4.6416">
        <ele>495.39999389648</ele>
        <time>2020-07-22T14:50:24.000Z</time>
      </trkpt>
      <trkpt lat="46.18154" lon="4.64162">
        <ele>495.39999389648</ele>
        <time>2020-07-22T14:50:27.000Z</time>
      </trkpt>
      <trkpt lat="46.18167" lon="4.64164">
        <ele>495.60000610352</ele>
        <time>2020-07-22T14:50:30.000Z</time>
      </trkpt>
      <trkpt lat="46.18184" lon="4.64169">
        <ele>495.39999389648</ele>
        <time>2020-07-22T14:50:34.000Z</time>
      </trkpt>
      <trkpt lat="46.18197" lon="4.64172">
        <ele>495</ele>
        <time>2020-07-22T14:50:37.000Z</time>
      </trkpt>
      <trkpt lat="46.18201" lon="4.64173">
        <ele>494.79998779297</ele>
        <time>2020-07-22T14:50:38.000Z</time>
      </trkpt>
      <trkpt lat="46.18214" lon="4.64177">
        <ele>494</ele>
        <time>2020-07-22T14:50:41.000Z</time>
      </trkpt>
      <trkpt lat="46.18235" lon="4.64181">
        <ele>491.79998779297</ele>
        <time>2020-07-22T14:50:46.000Z</time>
      </trkpt>
      <trkpt lat="46.18239" lon="4.6418">
        <ele>491</ele>
        <time>2020-07-22T14:50:47.000Z</time>
      </trkpt>
      <trkpt lat="46.18255" lon="4.64171">
        <ele>489.20001220703</ele>
        <time>2020-07-22T14:50:51.000Z</time>
      </trkpt>
      <trkpt lat="46.18258" lon="4.64167">
        <ele>488.79998779297</ele>
        <time>2020-07-22T14:50:52.000Z</time>
      </trkpt>
      <trkpt lat="46.18261" lon="4.64164">
        <ele>488.79998779297</ele>
        <time>2020-07-22T14:50:53.000Z</time>
      </trkpt>
      <trkpt lat="46.1827" lon="4.64153">
        <ele>489</ele>
        <time>2020-07-22T14:50:56.000Z</time>
      </trkpt>
      <trkpt lat="46.18283" lon="4.6413">
        <ele>491.39999389648</ele>
        <time>2020-07-22T14:51:01.000Z</time>
      </trkpt>
      <trkpt lat="46.18303" lon="4.64085">
        <ele>498.60000610352</ele>
        <time>2020-07-22T14:51:10.000Z</time>
      </trkpt>
      <trkpt lat="46.18319" lon="4.64048">
        <ele>506</ele>
        <time>2020-07-22T14:51:17.000Z</time>
      </trkpt>
      <trkpt lat="46.18322" lon="4.64043">
        <ele>507.20001220703</ele>
        <time>2020-07-22T14:51:18.000Z</time>
      </trkpt>
      <trkpt lat="46.18325" lon="4.64039">
        <ele>508.20001220703</ele>
        <time>2020-07-22T14:51:19.000Z</time>
      </trkpt>
      <trkpt lat="46.1834" lon="4.64025">
        <ele>511.20001220703</ele>
        <time>2020-07-22T14:51:23.000Z</time>
      </trkpt>
      <trkpt lat="46.18349" lon="4.64022">
        <ele>511.60000610352</ele>
        <time>2020-07-22T14:51:25.000Z</time>
      </trkpt>
      <trkpt lat="46.18361" lon="4.64019">
        <ele>511.60000610352</ele>
        <time>2020-07-22T14:51:28.000Z</time>
      </trkpt>
      <trkpt lat="46.18365" lon="4.64018">
        <ele>511.60000610352</ele>
        <time>2020-07-22T14:51:29.000Z</time>
      </trkpt>
      <trkpt lat="46.18394" lon="4.64017">
        <ele>510.39999389648</ele>
        <time>2020-07-22T14:51:36.000Z</time>
      </trkpt>
      <trkpt lat="46.18418" lon="4.64018">
        <ele>505.20001220703</ele>
        <time>2020-07-22T14:51:42.000Z</time>
      </trkpt>
      <trkpt lat="46.18427" lon="4.64016">
        <ele>503.79998779297</ele>
        <time>2020-07-22T14:51:44.000Z</time>
      </trkpt>
      <trkpt lat="46.18436" lon="4.64011">
        <ele>503</ele>
        <time>2020-07-22T14:51:46.000Z</time>
      </trkpt>
      <trkpt lat="46.18449" lon="4.64001">
        <ele>503.20001220703</ele>
        <time>2020-07-22T14:51:49.000Z</time>
      </trkpt>
      <trkpt lat="46.18463" lon="4.63985">
        <ele>504.20001220703</ele>
        <time>2020-07-22T14:51:53.000Z</time>
      </trkpt>
      <trkpt lat="46.18476" lon="4.63969">
        <ele>505.20001220703</ele>
        <time>2020-07-22T14:51:57.000Z</time>
      </trkpt>
      <trkpt lat="46.18492" lon="4.6395">
        <ele>506.79998779297</ele>
        <time>2020-07-22T14:52:02.000Z</time>
      </trkpt>
      <trkpt lat="46.18505" lon="4.63934">
        <ele>508</ele>
        <time>2020-07-22T14:52:06.000Z</time>
      </trkpt>
      <trkpt lat="46.18511" lon="4.63925">
        <ele>508.79998779297</ele>
        <time>2020-07-22T14:52:08.000Z</time>
      </trkpt>
      <trkpt lat="46.18517" lon="4.63916">
        <ele>510</ele>
        <time>2020-07-22T14:52:10.000Z</time>
      </trkpt>
      <trkpt lat="46.18521" lon="4.63905">
        <ele>512</ele>
        <time>2020-07-22T14:52:12.000Z</time>
      </trkpt>
      <trkpt lat="46.18523" lon="4.63893">
        <ele>514.59997558594</ele>
        <time>2020-07-22T14:52:14.000Z</time>
      </trkpt>
      <trkpt lat="46.18524" lon="4.63887">
        <ele>516</ele>
        <time>2020-07-22T14:52:15.000Z</time>
      </trkpt>
      <trkpt lat="46.18526" lon="4.63869">
        <ele>520.59997558594</ele>
        <time>2020-07-22T14:52:18.000Z</time>
      </trkpt>
      <trkpt lat="46.18527" lon="4.63863">
        <ele>521.79998779297</ele>
        <time>2020-07-22T14:52:19.000Z</time>
      </trkpt>
      <trkpt lat="46.18529" lon="4.63851">
        <ele>524.40002441406</ele>
        <time>2020-07-22T14:52:21.000Z</time>
      </trkpt>
      <trkpt lat="46.18536" lon="4.63836">
        <ele>526.79998779297</ele>
        <time>2020-07-22T14:52:24.000Z</time>
      </trkpt>
      <trkpt lat="46.18542" lon="4.63828">
        <ele>527.79998779297</ele>
        <time>2020-07-22T14:52:26.000Z</time>
      </trkpt>
      <trkpt lat="46.18551" lon="4.63824">
        <ele>527.40002441406</ele>
        <time>2020-07-22T14:52:28.000Z</time>
      </trkpt>
      <trkpt lat="46.18569" lon="4.63828">
        <ele>525.59997558594</ele>
        <time>2020-07-22T14:52:32.000Z</time>
      </trkpt>
      <trkpt lat="46.18581" lon="4.6384">
        <ele>524.20001220703</ele>
        <time>2020-07-22T14:52:35.000Z</time>
      </trkpt>
      <trkpt lat="46.18588" lon="4.63847">
        <ele>523</ele>
        <time>2020-07-22T14:52:37.000Z</time>
      </trkpt>
      <trkpt lat="46.18596" lon="4.63854">
        <ele>522.40002441406</ele>
        <time>2020-07-22T14:52:39.000Z</time>
      </trkpt>
      <trkpt lat="46.18612" lon="4.6386">
        <ele>522.40002441406</ele>
        <time>2020-07-22T14:52:43.000Z</time>
      </trkpt>
      <trkpt lat="46.18625" lon="4.63857">
        <ele>524.79998779297</ele>
        <time>2020-07-22T14:52:47.000Z</time>
      </trkpt>
      <trkpt lat="46.18629" lon="4.63855">
        <ele>525.59997558594</ele>
        <time>2020-07-22T14:52:48.000Z</time>
      </trkpt>
      <trkpt lat="46.18633" lon="4.63854">
        <ele>526.20001220703</ele>
        <time>2020-07-22T14:52:49.000Z</time>
      </trkpt>
      <trkpt lat="46.18643" lon="4.63856">
        <ele>526.40002441406</ele>
        <time>2020-07-22T14:52:51.000Z</time>
      </trkpt>
      <trkpt lat="46.18655" lon="4.63868">
        <ele>526.79998779297</ele>
        <time>2020-07-22T14:52:54.000Z</time>
      </trkpt>
      <trkpt lat="46.18658" lon="4.63872">
        <ele>526.79998779297</ele>
        <time>2020-07-22T14:52:55.000Z</time>
      </trkpt>
      <trkpt lat="46.18661" lon="4.63878">
        <ele>526.79998779297</ele>
        <time>2020-07-22T14:52:56.000Z</time>
      </trkpt>
      <trkpt lat="46.18673" lon="4.63905">
        <ele>525.59997558594</ele>
        <time>2020-07-22T14:53:01.000Z</time>
      </trkpt>
      <trkpt lat="46.18695" lon="4.63961">
        <ele>522.20001220703</ele>
        <time>2020-07-22T14:53:10.000Z</time>
      </trkpt>
      <trkpt lat="46.18699" lon="4.63996">
        <ele>520</ele>
        <time>2020-07-22T14:53:15.000Z</time>
      </trkpt>
      <trkpt lat="46.18699" lon="4.64017">
        <ele>518</ele>
        <time>2020-07-22T14:53:18.000Z</time>
      </trkpt>
      <trkpt lat="46.187" lon="4.6406">
        <ele>514.40002441406</ele>
        <time>2020-07-22T14:53:24.000Z</time>
      </trkpt>
      <trkpt lat="46.18702" lon="4.64075">
        <ele>513.79998779297</ele>
        <time>2020-07-22T14:53:26.000Z</time>
      </trkpt>
      <trkpt lat="46.18708" lon="4.64095">
        <ele>514.59997558594</ele>
        <time>2020-07-22T14:53:29.000Z</time>
      </trkpt>
      <trkpt lat="46.1872" lon="4.6411">
        <ele>517</ele>
        <time>2020-07-22T14:53:32.000Z</time>
      </trkpt>
      <trkpt lat="46.18724" lon="4.64112">
        <ele>518.20001220703</ele>
        <time>2020-07-22T14:53:33.000Z</time>
      </trkpt>
      <trkpt lat="46.18733" lon="4.64116">
        <ele>520.40002441406</ele>
        <time>2020-07-22T14:53:35.000Z</time>
      </trkpt>
      <trkpt lat="46.18748" lon="4.64124">
        <ele>522.79998779297</ele>
        <time>2020-07-22T14:53:38.000Z</time>
      </trkpt>
      <trkpt lat="46.18758" lon="4.6414">
        <ele>524</ele>
        <time>2020-07-22T14:53:41.000Z</time>
      </trkpt>
      <trkpt lat="46.18758" lon="4.64169">
        <ele>521.40002441406</ele>
        <time>2020-07-22T14:53:45.000Z</time>
      </trkpt>
      <trkpt lat="46.18757" lon="4.64176">
        <ele>520.40002441406</ele>
        <time>2020-07-22T14:53:46.000Z</time>
      </trkpt>
      <trkpt lat="46.18747" lon="4.64227">
        <ele>513.59997558594</ele>
        <time>2020-07-22T14:53:53.000Z</time>
      </trkpt>
      <trkpt lat="46.18745" lon="4.64242">
        <ele>513.59997558594</ele>
        <time>2020-07-22T14:53:55.000Z</time>
      </trkpt>
      <trkpt lat="46.18747" lon="4.64257">
        <ele>514</ele>
        <time>2020-07-22T14:53:57.000Z</time>
      </trkpt>
      <trkpt lat="46.18759" lon="4.64282">
        <ele>515.59997558594</ele>
        <time>2020-07-22T14:54:01.000Z</time>
      </trkpt>
      <trkpt lat="46.18768" lon="4.64291">
        <ele>515.79998779297</ele>
        <time>2020-07-22T14:54:03.000Z</time>
      </trkpt>
      <trkpt lat="46.18782" lon="4.643">
        <ele>516</ele>
        <time>2020-07-22T14:54:06.000Z</time>
      </trkpt>
      <trkpt lat="46.18786" lon="4.64302">
        <ele>516.20001220703</ele>
        <time>2020-07-22T14:54:07.000Z</time>
      </trkpt>
      <trkpt lat="46.18796" lon="4.64306">
        <ele>516.79998779297</ele>
        <time>2020-07-22T14:54:09.000Z</time>
      </trkpt>
      <trkpt lat="46.18805" lon="4.64308">
        <ele>517.40002441406</ele>
        <time>2020-07-22T14:54:11.000Z</time>
      </trkpt>
      <trkpt lat="46.18815" lon="4.64308">
        <ele>518.59997558594</ele>
        <time>2020-07-22T14:54:13.000Z</time>
      </trkpt>
      <trkpt lat="46.18819" lon="4.64307">
        <ele>519.20001220703</ele>
        <time>2020-07-22T14:54:14.000Z</time>
      </trkpt>
      <trkpt lat="46.18832" lon="4.64303">
        <ele>521</ele>
        <time>2020-07-22T14:54:17.000Z</time>
      </trkpt>
      <trkpt lat="46.18837" lon="4.64301">
        <ele>521.40002441406</ele>
        <time>2020-07-22T14:54:18.000Z</time>
      </trkpt>
      <trkpt lat="46.18845" lon="4.64297">
        <ele>522.20001220703</ele>
        <time>2020-07-22T14:54:20.000Z</time>
      </trkpt>
      <trkpt lat="46.18868" lon="4.64284">
        <ele>525</ele>
        <time>2020-07-22T14:54:26.000Z</time>
      </trkpt>
      <trkpt lat="46.1888" lon="4.64277">
        <ele>526.20001220703</ele>
        <time>2020-07-22T14:54:29.000Z</time>
      </trkpt>
      <trkpt lat="46.18891" lon="4.64272">
        <ele>528.59997558594</ele>
        <time>2020-07-22T14:54:32.000Z</time>
      </trkpt>
      <trkpt lat="46.18913" lon="4.64264">
        <ele>534.79998779297</ele>
        <time>2020-07-22T14:54:38.000Z</time>
      </trkpt>
      <trkpt lat="46.18924" lon="4.64264">
        <ele>536.79998779297</ele>
        <time>2020-07-22T14:54:41.000Z</time>
      </trkpt>
      <trkpt lat="46.18932" lon="4.64266">
        <ele>537.79998779297</ele>
        <time>2020-07-22T14:54:43.000Z</time>
      </trkpt>
      <trkpt lat="46.18939" lon="4.6427">
        <ele>538.20001220703</ele>
        <time>2020-07-22T14:54:45.000Z</time>
      </trkpt>
      <trkpt lat="46.18945" lon="4.64276">
        <ele>538</ele>
        <time>2020-07-22T14:54:47.000Z</time>
      </trkpt>
      <trkpt lat="46.18951" lon="4.64284">
        <ele>537.20001220703</ele>
        <time>2020-07-22T14:54:49.000Z</time>
      </trkpt>
      <trkpt lat="46.18956" lon="4.64298">
        <ele>537.79998779297</ele>
        <time>2020-07-22T14:54:52.000Z</time>
      </trkpt>
      <trkpt lat="46.18957" lon="4.64309">
        <ele>537.79998779297</ele>
        <time>2020-07-22T14:54:54.000Z</time>
      </trkpt>
      <trkpt lat="46.18955" lon="4.64325">
        <ele>537.59997558594</ele>
        <time>2020-07-22T14:54:57.000Z</time>
      </trkpt>
      <trkpt lat="46.18954" lon="4.64336">
        <ele>537.20001220703</ele>
        <time>2020-07-22T14:54:59.000Z</time>
      </trkpt>
      <trkpt lat="46.18949" lon="4.6437">
        <ele>532.79998779297</ele>
        <time>2020-07-22T14:55:05.000Z</time>
      </trkpt>
      <trkpt lat="46.18948" lon="4.64376">
        <ele>532.59997558594</ele>
        <time>2020-07-22T14:55:06.000Z</time>
      </trkpt>
      <trkpt lat="46.18946" lon="4.64382">
        <ele>532.40002441406</ele>
        <time>2020-07-22T14:55:07.000Z</time>
      </trkpt>
      <trkpt lat="46.18943" lon="4.64405">
        <ele>532</ele>
        <time>2020-07-22T14:55:11.000Z</time>
      </trkpt>
      <trkpt lat="46.18943" lon="4.64411">
        <ele>532</ele>
        <time>2020-07-22T14:55:12.000Z</time>
      </trkpt>
      <trkpt lat="46.18944" lon="4.6444">
        <ele>532.40002441406</ele>
        <time>2020-07-22T14:55:17.000Z</time>
      </trkpt>
      <trkpt lat="46.18945" lon="4.64446">
        <ele>532.40002441406</ele>
        <time>2020-07-22T14:55:18.000Z</time>
      </trkpt>
      <trkpt lat="46.18954" lon="4.64479">
        <ele>532.79998779297</ele>
        <time>2020-07-22T14:55:24.000Z</time>
      </trkpt>
      <trkpt lat="46.18967" lon="4.64509">
        <ele>534</ele>
        <time>2020-07-22T14:55:30.000Z</time>
      </trkpt>
      <trkpt lat="46.1897" lon="4.64514">
        <ele>534.59997558594</ele>
        <time>2020-07-22T14:55:31.000Z</time>
      </trkpt>
      <trkpt lat="46.18976" lon="4.64522">
        <ele>535.79998779297</ele>
        <time>2020-07-22T14:55:33.000Z</time>
      </trkpt>
      <trkpt lat="46.18983" lon="4.64529">
        <ele>536.40002441406</ele>
        <time>2020-07-22T14:55:35.000Z</time>
      </trkpt>
      <trkpt lat="46.1899" lon="4.64535">
        <ele>536.59997558594</ele>
        <time>2020-07-22T14:55:37.000Z</time>
      </trkpt>
      <trkpt lat="46.19004" lon="4.64546">
        <ele>535.79998779297</ele>
        <time>2020-07-22T14:55:41.000Z</time>
      </trkpt>
      <trkpt lat="46.19015" lon="4.64551">
        <ele>536</ele>
        <time>2020-07-22T14:55:44.000Z</time>
      </trkpt>
      <trkpt lat="46.19022" lon="4.64554">
        <ele>536.20001220703</ele>
        <time>2020-07-22T14:55:46.000Z</time>
      </trkpt>
      <trkpt lat="46.19042" lon="4.64554">
        <ele>538.79998779297</ele>
        <time>2020-07-22T14:55:51.000Z</time>
      </trkpt>
      <trkpt lat="46.19046" lon="4.64554">
        <ele>539.40002441406</ele>
        <time>2020-07-22T14:55:52.000Z</time>
      </trkpt>
      <trkpt lat="46.19071" lon="4.64548">
        <ele>545.20001220703</ele>
        <time>2020-07-22T14:55:58.000Z</time>
      </trkpt>
      <trkpt lat="46.19074" lon="4.64546">
        <ele>546.40002441406</ele>
        <time>2020-07-22T14:55:59.000Z</time>
      </trkpt>
      <trkpt lat="46.19089" lon="4.6454">
        <ele>550.59997558594</ele>
        <time>2020-07-22T14:56:03.000Z</time>
      </trkpt>
      <trkpt lat="46.19096" lon="4.64538">
        <ele>552.59997558594</ele>
        <time>2020-07-22T14:56:05.000Z</time>
      </trkpt>
      <trkpt lat="46.19103" lon="4.64536">
        <ele>554.40002441406</ele>
        <time>2020-07-22T14:56:07.000Z</time>
      </trkpt>
      <trkpt lat="46.19113" lon="4.64539">
        <ele>555.79998779297</ele>
        <time>2020-07-22T14:56:10.000Z</time>
      </trkpt>
      <trkpt lat="46.19117" lon="4.64541">
        <ele>556</ele>
        <time>2020-07-22T14:56:11.000Z</time>
      </trkpt>
      <trkpt lat="46.19126" lon="4.6455">
        <ele>556.20001220703</ele>
        <time>2020-07-22T14:56:14.000Z</time>
      </trkpt>
      <trkpt lat="46.19133" lon="4.64556">
        <ele>556.20001220703</ele>
        <time>2020-07-22T14:56:16.000Z</time>
      </trkpt>
      <trkpt lat="46.19136" lon="4.64559">
        <ele>556.20001220703</ele>
        <time>2020-07-22T14:56:17.000Z</time>
      </trkpt>
      <trkpt lat="46.1915" lon="4.64573">
        <ele>556.59997558594</ele>
        <time>2020-07-22T14:56:21.000Z</time>
      </trkpt>
      <trkpt lat="46.19162" lon="4.64588">
        <ele>556.59997558594</ele>
        <time>2020-07-22T14:56:25.000Z</time>
      </trkpt>
      <trkpt lat="46.1917" lon="4.64613">
        <ele>553.79998779297</ele>
        <time>2020-07-22T14:56:30.000Z</time>
      </trkpt>
      <trkpt lat="46.19173" lon="4.64654">
        <ele>548.20001220703</ele>
        <time>2020-07-22T14:56:37.000Z</time>
      </trkpt>
      <trkpt lat="46.19181" lon="4.64687">
        <ele>545.59997558594</ele>
        <time>2020-07-22T14:56:43.000Z</time>
      </trkpt>
      <trkpt lat="46.19186" lon="4.64695">
        <ele>545.79998779297</ele>
        <time>2020-07-22T14:56:45.000Z</time>
      </trkpt>
      <trkpt lat="46.19195" lon="4.64708">
        <ele>546.59997558594</ele>
        <time>2020-07-22T14:56:48.000Z</time>
      </trkpt>
      <trkpt lat="46.19198" lon="4.64712">
        <ele>546.79998779297</ele>
        <time>2020-07-22T14:56:49.000Z</time>
      </trkpt>
      <trkpt lat="46.19223" lon="4.64752">
        <ele>548.20001220703</ele>
        <time>2020-07-22T14:56:58.000Z</time>
      </trkpt>
      <trkpt lat="46.19237" lon="4.64789">
        <ele>544.20001220703</ele>
        <time>2020-07-22T14:57:06.000Z</time>
      </trkpt>
      <trkpt lat="46.19245" lon="4.6481">
        <ele>541.40002441406</ele>
        <time>2020-07-22T14:57:12.000Z</time>
      </trkpt>
      <trkpt lat="46.19249" lon="4.64824">
        <ele>539.79998779297</ele>
        <time>2020-07-22T14:57:18.000Z</time>
      </trkpt>
      <trkpt lat="46.19245" lon="4.64837">
        <ele>538.79998779297</ele>
        <time>2020-07-22T14:57:23.000Z</time>
      </trkpt>
    </trkseg>
  </trk>
</gpx>